Observation data for Vigo Park on 07/18/2019      Previous  Date  Next       Current Mesonet Observations  Soil Data  Daily Summary Page  Observations in Plain Language
KVP1 180500Z 17015KT 27/17 A2999 RMK A01 T02730166  RH  052%=      5-min Rain = 0
KVP1 180501Z 17014KT 27/17 A2999 RMK A01 T02730166  RH  052%=      5-min Rain = 0
KVP1 180502Z 17013KT 27/17 A2999 RMK A01 T02730166  RH  052%=      5-min Rain = 0
KVP1 180503Z 17014KT 27/17 A2999 RMK A01 T02730166  RH  052%=      5-min Rain = 0
KVP1 180504Z 17014KT 27/17 A2999 RMK A01 T02720165  RH  052%=      5-min Rain = 0
KVP1 180505Z 17015KT 27/17 A2999 RMK A01 T02730165  RH  052%=      5-min Rain = 0
KVP1 180506Z 17017KT 27/16 A2999 RMK A01 T02730164  RH  052%=      5-min Rain = 0
KVP1 180507Z 17016G21KT 27/17 A2999 RMK A01 T02730165  RH  051%=      5-min Rain = 0
KVP1 180508Z 17015KT 27/16 A2999 RMK A01 T02740164  RH  051%=      5-min Rain = 0
KVP1 180509Z 17013KT 27/16 A2999 RMK A01 T02740164  RH  051%=      5-min Rain = 0
KVP1 180510Z 17017KT 27/16 A2999 RMK A01 T02740164  RH  051%=      5-min Rain = 0
KVP1 180511Z 17014KT 27/16 A2999 RMK A01 T02740164  RH  051%=      5-min Rain = 0
KVP1 180512Z 17017KT 27/16 A2999 RMK A01 T02730163  RH  051%=      5-min Rain = 0
KVP1 180513Z 17015KT 27/16 A2999 RMK A01 T02730163  RH  051%=      5-min Rain = 0
KVP1 180514Z 17014G19KT 27/16 A2999 RMK A01 T02730163  RH  051%=      5-min Rain = 0
KVP1 180515Z 17017KT 27/16 A2999 RMK A01 T02730163  RH  051%=      5-min Rain = 0
KVP1 180516Z 17017G23KT 27/16 A2999 RMK A01 T02730163  RH  051%=      5-min Rain = 0
KVP1 180517Z 17013KT 27/16 A2999 RMK A01 T02730163  RH  051%=      5-min Rain = 0
KVP1 180518Z 17017KT 27/16 A2999 RMK A01 T02730163  RH  051%=      5-min Rain = 0
KVP1 180519Z 17015G20KT 27/16 A2999 RMK A01 T02730163  RH  051%=      5-min Rain = 0
KVP1 180520Z 17016KT 27/16 A2999 RMK A01 T02720162  RH  051%=      5-min Rain = 0
KVP1 180521Z 17016KT 27/16 A2999 RMK A01 T02730162  RH  051%=      5-min Rain = 0
KVP1 180522Z 17014KT 27/16 A2999 RMK A01 T02730162  RH  051%=      5-min Rain = 0
KVP1 180523Z 17018KT 27/16 A2999 RMK A01 T02730162  RH  051%=      5-min Rain = 0
KVP1 180524Z 17016KT 27/16 A2999 RMK A01 T02730162  RH  051%=      5-min Rain = 0
KVP1 180525Z 17015KT 27/16 A2999 RMK A01 T02730162  RH  051%=      5-min Rain = 0
KVP1 180526Z 17016KT 27/16 A2999 RMK A01 T02730162  RH  051%=      5-min Rain = 0
KVP1 180527Z 17017KT 27/16 A2999 RMK A01 T02720161  RH  051%=      5-min Rain = 0
KVP1 180528Z 17015KT 27/16 A2998 RMK A01 T02720161  RH  051%=      5-min Rain = 0
KVP1 180529Z 17014KT 27/16 A2999 RMK A01 T02720161  RH  051%=      5-min Rain = 0
KVP1 180530Z 17014KT 27/16 A2998 RMK A01 T02710161  RH  051%=      5-min Rain = 0
KVP1 180531Z 17018KT 27/16 A2998 RMK A01 T02710161  RH  051%=      5-min Rain = 0
KVP1 180532Z 17016KT 27/16 A2998 RMK A01 T02710160  RH  051%=      5-min Rain = 0
KVP1 180533Z 17015KT 27/16 A2999 RMK A01 T02710160  RH  051%=      5-min Rain = 0
KVP1 180534Z 17014G21KT 27/16 A2999 RMK A01 T02710160  RH  051%=      5-min Rain = 0
KVP1 180535Z 17014KT 27/16 A2999 RMK A01 T02710160  RH  051%=      5-min Rain = 0
KVP1 180536Z 17016KT 27/16 A2999 RMK A01 T02710160  RH  051%=      5-min Rain = 0
KVP1 180537Z 17014KT 27/16 A2998 RMK A01 T02710160  RH  051%=      5-min Rain = 0
KVP1 180538Z 17016KT 27/16 A2998 RMK A01 T02700160  RH  051%=      5-min Rain = 0
KVP1 180539Z 17014KT 27/16 A2998 RMK A01 T02700160  RH  051%=      5-min Rain = 0
KVP1 180540Z 17014G19KT 27/16 A2998 RMK A01 T02700160  RH  051%=      5-min Rain = 0
KVP1 180541Z 17014KT 27/16 A2998 RMK A01 T02700160  RH  051%=      5-min Rain = 0
KVP1 180542Z 17014KT 27/16 A2998 RMK A01 T02700160  RH  051%=      5-min Rain = 0
KVP1 180543Z 17012KT 27/16 A2998 RMK A01 T02690160  RH  051%=      5-min Rain = 0
KVP1 180544Z 17014KT 27/16 A2998 RMK A01 T02690159  RH  051%=      5-min Rain = 0
KVP1 180545Z 17015KT 27/16 A2998 RMK A01 T02680159  RH  051%=      5-min Rain = 0
KVP1 180546Z 17014KT 27/16 A2998 RMK A01 T02680159  RH  051%=      5-min Rain = 0
KVP1 180547Z 17015KT 27/16 A2998 RMK A01 T02680159  RH  051%=      5-min Rain = 0
KVP1 180548Z 17014G19KT 27/16 A2998 RMK A01 T02680159  RH  051%=      5-min Rain = 0
KVP1 180549Z 17013KT 27/16 A2998 RMK A01 T02680159  RH  051%=      5-min Rain = 0
KVP1 180550Z 17014KT 27/16 A2998 RMK A01 T02680159  RH  051%=      5-min Rain = 0
KVP1 180551Z 17014KT 27/16 A2998 RMK A01 T02680159  RH  051%=      5-min Rain = 0
KVP1 180552Z 17014G20KT 27/16 A2998 RMK A01 T02680158  RH  051%=      5-min Rain = 0
KVP1 180553Z 17013KT 27/16 A2998 RMK A01 T02680158  RH  051%=      5-min Rain = 0
KVP1 180554Z 17015KT 27/16 A2998 RMK A01 T02680158  RH  051%=      5-min Rain = 0
KVP1 180555Z 17015KT 27/16 A2998 RMK A01 T02680158  RH  051%=      5-min Rain = 0
KVP1 180556Z 17013KT 27/16 A2998 RMK A01 T02680158  RH  051%=      5-min Rain = 0
KVP1 180557Z 17013KT 27/16 A2999 RMK A01 T02680158  RH  051%=      5-min Rain = 0
KVP1 180558Z 17014KT 27/16 A2999 RMK A01 T02670158  RH  051%=      5-min Rain = 0
KVP1 180559Z 17015KT 27/16 A2998 RMK A01 T02660158  RH  051%=      5-min Rain = 0
KVP1 180600Z 17014KT 27/16 A2998 RMK A01 T02660158  RH  051%=      5-min Rain = 0
KVP1 180601Z 17014KT 27/16 A2998 RMK A01 T02660158  RH  051%=      5-min Rain = 0
KVP1 180602Z 17015KT 27/16 A2998 RMK A01 T02660158  RH  051%=      5-min Rain = 0
KVP1 180603Z 17014KT 27/16 A2998 RMK A01 T02660158  RH  051%=      5-min Rain = 0
KVP1 180604Z 17013KT 27/16 A2998 RMK A01 T02660158  RH  051%=      5-min Rain = 0
KVP1 180605Z 17013KT 27/16 A2998 RMK A01 T02660158  RH  051%=      5-min Rain = 0
KVP1 180606Z 17013KT 27/16 A2998 RMK A01 T02650158  RH  052%=      5-min Rain = 0
KVP1 180607Z 17014KT 27/16 A2998 RMK A01 T02650157  RH  052%=      5-min Rain = 0
KVP1 180608Z 17013KT 27/16 A2998 RMK A01 T02650157  RH  051%=      5-min Rain = 0
KVP1 180609Z 17012KT 27/16 A2998 RMK A01 T02650157  RH  052%=      5-min Rain = 0
KVP1 180610Z 17014KT 27/16 A2998 RMK A01 T02650157  RH  052%=      5-min Rain = 0
KVP1 180611Z 17014KT 26/16 A2998 RMK A01 T02640157  RH  052%=      5-min Rain = 0
KVP1 180612Z 17014G19KT 26/16 A2998 RMK A01 T02640157  RH  052%=      5-min Rain = 0
KVP1 180613Z 17015KT 27/16 A2998 RMK A01 T02650157  RH  051%=      5-min Rain = 0
KVP1 180614Z 17014KT 27/16 A2998 RMK A01 T02650157  RH  051%=      5-min Rain = 0
KVP1 180615Z 17015KT 27/16 A2998 RMK A01 T02650157  RH  051%=      5-min Rain = 0
KVP1 180616Z 17013KT 27/16 A2998 RMK A01 T02650157  RH  051%=      5-min Rain = 0
KVP1 180617Z 17012KT 27/16 A2998 RMK A01 T02650157  RH  052%=      5-min Rain = 0
KVP1 180618Z 18013KT 26/16 A2998 RMK A01 T02640157  RH  052%=      5-min Rain = 0
KVP1 180619Z 17013KT 26/16 A2998 RMK A01 T02630157  RH  052%=      5-min Rain = 0
KVP1 180620Z 18013KT 26/16 A2998 RMK A01 T02630157  RH  052%=      5-min Rain = 0
KVP1 180621Z 17014KT 26/16 A2998 RMK A01 T02630157  RH  052%=      5-min Rain = 0
KVP1 180622Z 18013KT 26/16 A2998 RMK A01 T02630157  RH  052%=      5-min Rain = 0
KVP1 180623Z 17014KT 26/16 A2998 RMK A01 T02630156  RH  052%=      5-min Rain = 0
KVP1 180624Z 18014KT 26/16 A2998 RMK A01 T02630156  RH  052%=      5-min Rain = 0
KVP1 180625Z 18012KT 26/16 A2998 RMK A01 T02630156  RH  052%=      5-min Rain = 0
KVP1 180626Z 18013KT 26/16 A2999 RMK A01 T02630157  RH  052%=      5-min Rain = 0
KVP1 180627Z 18015KT 26/16 A2999 RMK A01 T02620157  RH  052%=      5-min Rain = 0
KVP1 180628Z 18015KT 26/16 A2999 RMK A01 T02620156  RH  052%=      5-min Rain = 0
KVP1 180629Z 18014KT 26/16 A2999 RMK A01 T02630156  RH  052%=      5-min Rain = 0
KVP1 180630Z 18014KT 26/16 A2998 RMK A01 T02630156  RH  052%=      5-min Rain = 0
KVP1 180631Z 18013KT 26/16 A2998 RMK A01 T02630156  RH  052%=      5-min Rain = 0
KVP1 180632Z 18012G17KT 26/16 A2998 RMK A01 T02630156  RH  052%=      5-min Rain = 0
KVP1 180633Z 17013KT 26/16 A2998 RMK A01 T02630157  RH  052%=      5-min Rain = 0
KVP1 180634Z 18016KT 26/16 A2998 RMK A01 T02620156  RH  052%=      5-min Rain = 0
KVP1 180635Z 18013KT 26/16 A2998 RMK A01 T02620156  RH  052%=      5-min Rain = 0
KVP1 180636Z 18013KT 26/16 A2998 RMK A01 T02620156  RH  052%=      5-min Rain = 0
KVP1 180637Z 17014KT 26/16 A2998 RMK A01 T02620156  RH  052%=      5-min Rain = 0
KVP1 180638Z 17014KT 26/16 A2998 RMK A01 T02620156  RH  052%=      5-min Rain = 0
KVP1 180639Z 17016KT 26/16 A2998 RMK A01 T02620156  RH  052%=      5-min Rain = 0
KVP1 180640Z 17014KT 26/16 A2998 RMK A01 T02620156  RH  052%=      5-min Rain = 0
KVP1 180641Z 18013KT 26/16 A2998 RMK A01 T02630156  RH  052%=      5-min Rain = 0
KVP1 180642Z 18014G19KT 26/16 A2998 RMK A01 T02620156  RH  052%=      5-min Rain = 0
KVP1 180643Z 18014G19KT 26/16 A2998 RMK A01 T02620156  RH  052%=      5-min Rain = 0
KVP1 180644Z 18014KT 26/16 A2998 RMK A01 T02620156  RH  052%=      5-min Rain = 0
KVP1 180645Z 18014KT 26/16 A2998 RMK A01 T02620156  RH  052%=      5-min Rain = 0
KVP1 180646Z 18013KT 26/16 A2998 RMK A01 T02610156  RH  052%=      5-min Rain = 0
KVP1 180647Z 18013KT 26/16 A2998 RMK A01 T02620156  RH  052%=      5-min Rain = 0
KVP1 180648Z 18012KT 26/16 A2999 RMK A01 T02620156  RH  052%=      5-min Rain = 0
KVP1 180649Z 18013KT 26/16 A2998 RMK A01 T02610156  RH  052%=      5-min Rain = 0
KVP1 180650Z 18012KT 26/16 A2998 RMK A01 T02600156  RH  053%=      5-min Rain = 0
KVP1 180651Z 18014KT 26/16 A2999 RMK A01 T02600156  RH  053%=      5-min Rain = 0
KVP1 180652Z 18013G18KT 26/16 A2999 RMK A01 T02600156  RH  053%=      5-min Rain = 0
KVP1 180653Z 18012KT 26/16 A2999 RMK A01 T02600157  RH  053%=      5-min Rain = 0
KVP1 180654Z 18014KT 26/16 A2999 RMK A01 T02600156  RH  053%=      5-min Rain = 0
KVP1 180655Z 18014KT 26/16 A2999 RMK A01 T02600156  RH  053%=      5-min Rain = 0
KVP1 180656Z 18015KT 26/16 A2999 RMK A01 T02600156  RH  053%=      5-min Rain = 0
KVP1 180657Z 18013KT 26/16 A2999 RMK A01 T02600156  RH  053%=      5-min Rain = 0
KVP1 180658Z 18012KT 26/16 A2999 RMK A01 T02600156  RH  053%=      5-min Rain = 0
KVP1 180659Z 18014KT 26/16 A2999 RMK A01 T02590156  RH  053%=      5-min Rain = 0
KVP1 180700Z 18012KT 26/16 A2999 RMK A01 T02590156  RH  053%=      5-min Rain = 0
KVP1 180701Z 18011KT 26/16 A2999 RMK A01 T02580156  RH  053%=      5-min Rain = 0
KVP1 180702Z 18013KT 26/16 A2999 RMK A01 T02570156  RH  054%=      5-min Rain = 0
KVP1 180703Z 18013KT 26/16 A2999 RMK A01 T02570156  RH  054%=      5-min Rain = 0
KVP1 180704Z 18012KT 26/16 A2999 RMK A01 T02570156  RH  054%=      5-min Rain = 0
KVP1 180705Z 18012KT 26/16 A2999 RMK A01 T02570156  RH  054%=      5-min Rain = 0
KVP1 180706Z 19013KT 26/16 A2999 RMK A01 T02570156  RH  054%=      5-min Rain = 0
KVP1 180707Z 19012KT 26/16 A2999 RMK A01 T02570156  RH  054%=      5-min Rain = 0
KVP1 180708Z 19013KT 26/16 A2999 RMK A01 T02560156  RH  054%=      5-min Rain = 0
KVP1 180709Z 19011KT 26/16 A2999 RMK A01 T02560156  RH  054%=      5-min Rain = 0
KVP1 180710Z 19012KT 26/16 A2999 RMK A01 T02560157  RH  054%=      5-min Rain = 0
KVP1 180711Z 19011KT 26/16 A2999 RMK A01 T02550156  RH  054%=      5-min Rain = 0
KVP1 180712Z 18011KT 26/16 A2999 RMK A01 T02550156  RH  054%=      5-min Rain = 0
KVP1 180713Z 18011KT 25/16 A2999 RMK A01 T02540157  RH  055%=      5-min Rain = 0
KVP1 180714Z 18013KT 25/16 A2999 RMK A01 T02540156  RH  055%=      5-min Rain = 0
KVP1 180715Z 18012KT 25/16 A2999 RMK A01 T02530156  RH  055%=      5-min Rain = 0
KVP1 180716Z 18013KT 25/16 A2999 RMK A01 T02530156  RH  055%=      5-min Rain = 0
KVP1 180717Z 18012KT 25/16 A2999 RMK A01 T02530156  RH  055%=      5-min Rain = 0
KVP1 180718Z 18012KT 25/16 A2999 RMK A01 T02530157  RH  055%=      5-min Rain = 0
KVP1 180719Z 18012KT 25/16 A2999 RMK A01 T02520156  RH  055%=      5-min Rain = 0
KVP1 180720Z 19012KT 25/16 A2999 RMK A01 T02520157  RH  055%=      5-min Rain = 0
KVP1 180721Z 18012KT 25/16 A2999 RMK A01 T02520156  RH  055%=      5-min Rain = 0
KVP1 180722Z 18012KT 25/16 A2999 RMK A01 T02520157  RH  056%=      5-min Rain = 0
KVP1 180723Z 18011KT 25/16 A2999 RMK A01 T02510156  RH  056%=      5-min Rain = 0
KVP1 180724Z 19012KT 25/16 A2999 RMK A01 T02510157  RH  056%=      5-min Rain = 0
KVP1 180725Z 18011KT 25/16 A2999 RMK A01 T02500156  RH  056%=      5-min Rain = 0
KVP1 180726Z 18011KT 25/16 A2999 RMK A01 T02500157  RH  056%=      5-min Rain = 0
KVP1 180727Z 18012KT 25/16 A2999 RMK A01 T02500157  RH  056%=      5-min Rain = 0
KVP1 180728Z 18011KT 25/16 A2999 RMK A01 T02500157  RH  056%=      5-min Rain = 0
KVP1 180729Z 18011KT 25/16 A2999 RMK A01 T02500157  RH  056%=      5-min Rain = 0
KVP1 180730Z 18012KT 25/16 A2999 RMK A01 T02490157  RH  056%=      5-min Rain = 0
KVP1 180731Z 18012KT 25/16 A2999 RMK A01 T02490156  RH  056%=      5-min Rain = 0
KVP1 180732Z 18012KT 25/16 A2999 RMK A01 T02490157  RH  056%=      5-min Rain = 0
KVP1 180733Z 19012KT 25/16 A2999 RMK A01 T02490157  RH  056%=      5-min Rain = 0
KVP1 180734Z 19012KT 25/16 A2999 RMK A01 T02500157  RH  056%=      5-min Rain = 0
KVP1 180735Z 19013KT 25/16 A2999 RMK A01 T02500157  RH  056%=      5-min Rain = 0
KVP1 180736Z 19011KT 25/16 A2999 RMK A01 T02500157  RH  056%=      5-min Rain = 0
KVP1 180737Z 19011KT 25/16 A2999 RMK A01 T02500157  RH  056%=      5-min Rain = 0
KVP1 180738Z 19011KT 25/16 A2999 RMK A01 T02490157  RH  056%=      5-min Rain = 0
KVP1 180739Z 19010KT 25/16 A2999 RMK A01 T02490157  RH  057%=      5-min Rain = 0
KVP1 180740Z 19012KT 25/16 A2999 RMK A01 T02480157  RH  057%=      5-min Rain = 0
KVP1 180741Z 19010KT 25/16 A2999 RMK A01 T02480157  RH  057%=      5-min Rain = 0
KVP1 180742Z 19010KT 25/16 A2999 RMK A01 T02470157  RH  057%=      5-min Rain = 0
KVP1 180743Z 20011KT 25/16 A2999 RMK A01 T02470157  RH  057%=      5-min Rain = 0
KVP1 180744Z 19011KT 25/16 A2999 RMK A01 T02460157  RH  057%=      5-min Rain = 0
KVP1 180745Z 20011KT 25/16 A2999 RMK A01 T02460157  RH  057%=      5-min Rain = 0
KVP1 180746Z 20011KT 25/16 A2999 RMK A01 T02460157  RH  058%=      5-min Rain = 0
KVP1 180747Z 20011KT 25/16 A2999 RMK A01 T02450157  RH  058%=      5-min Rain = 0
KVP1 180748Z 20011KT 25/16 A2999 RMK A01 T02450157  RH  058%=      5-min Rain = 0
KVP1 180749Z 20011KT 25/16 A2999 RMK A01 T02450157  RH  058%=      5-min Rain = 0
KVP1 180750Z 20011KT 25/16 A2999 RMK A01 T02450157  RH  058%=      5-min Rain = 0
KVP1 180751Z 20011KT 24/16 A2999 RMK A01 T02440157  RH  058%=      5-min Rain = 0
KVP1 180752Z 20011KT 24/16 A2999 RMK A01 T02440157  RH  058%=      5-min Rain = 0
KVP1 180753Z 20011KT 24/16 A2999 RMK A01 T02440157  RH  059%=      5-min Rain = 0
KVP1 180754Z 20011KT 24/16 A2999 RMK A01 T02430158  RH  059%=      5-min Rain = 0
KVP1 180755Z 20011KT 24/16 A2999 RMK A01 T02430158  RH  059%=      5-min Rain = 0
KVP1 180756Z 19011KT 24/16 A2999 RMK A01 T02420157  RH  059%=      5-min Rain = 0
KVP1 180757Z 20011KT 24/16 A2999 RMK A01 T02410157  RH  060%=      5-min Rain = 0
KVP1 180758Z 20011KT 24/16 A2999 RMK A01 T02400157  RH  060%=      5-min Rain = 0
KVP1 180759Z 20010KT 24/16 A2999 RMK A01 T02400157  RH  060%=      5-min Rain = 0
KVP1 180800Z 20010KT 24/16 A2999 RMK A01 T02390158  RH  060%=      5-min Rain = 0
KVP1 180801Z 20010KT 24/16 A2999 RMK A01 T02380157  RH  060%=      5-min Rain = 0
KVP1 180802Z 20010KT 24/16 A2999 RMK A01 T02380157  RH  061%=      5-min Rain = 0
KVP1 180803Z 20010KT 24/16 A2999 RMK A01 T02380158  RH  061%=      5-min Rain = 0
KVP1 180804Z 20010KT 24/16 A2999 RMK A01 T02380158  RH  061%=      5-min Rain = 0
KVP1 180805Z 20009KT 24/16 A2999 RMK A01 T02370158  RH  061%=      5-min Rain = 0
KVP1 180806Z 20009KT 24/16 A2999 RMK A01 T02370158  RH  061%=      5-min Rain = 0
KVP1 180807Z 20010KT 24/16 A2999 RMK A01 T02360158  RH  061%=      5-min Rain = 0
KVP1 180808Z 20009KT 24/16 A2999 RMK A01 T02360158  RH  062%=      5-min Rain = 0
KVP1 180809Z 20010KT 24/16 A2999 RMK A01 T02350158  RH  062%=      5-min Rain = 0
KVP1 180810Z 20009KT 24/16 A2999 RMK A01 T02350158  RH  062%=      5-min Rain = 0
KVP1 180811Z 20009KT 24/16 A2999 RMK A01 T02350158  RH  062%=      5-min Rain = 0
KVP1 180812Z 20009KT 23/16 A2999 RMK A01 T02340158  RH  062%=      5-min Rain = 0
KVP1 180813Z 20009KT 23/16 A2999 RMK A01 T02340158  RH  062%=      5-min Rain = 0
KVP1 180814Z 20010KT 23/16 A2999 RMK A01 T02340158  RH  062%=      5-min Rain = 0
KVP1 180815Z 20010KT 23/16 A2999 RMK A01 T02340158  RH  062%=      5-min Rain = 0
KVP1 180816Z 20010KT 23/16 A2999 RMK A01 T02340158  RH  062%=      5-min Rain = 0
KVP1 180817Z 19010KT 23/16 A2999 RMK A01 T02330158  RH  063%=      5-min Rain = 0
KVP1 180818Z 19010KT 23/16 A2999 RMK A01 T02330158  RH  063%=      5-min Rain = 0
KVP1 180819Z 19010KT 23/16 A2999 RMK A01 T02330158  RH  063%=      5-min Rain = 0
KVP1 180820Z 19011KT 23/16 A2998 RMK A01 T02320158  RH  063%=      5-min Rain = 0
KVP1 180821Z 19011KT 23/16 A2998 RMK A01 T02330158  RH  063%=      5-min Rain = 0
KVP1 180822Z 19011KT 23/16 A2998 RMK A01 T02330158  RH  063%=      5-min Rain = 0
KVP1 180823Z 19010KT 23/16 A2998 RMK A01 T02330158  RH  063%=      5-min Rain = 0
KVP1 180824Z 19011KT 23/16 A2998 RMK A01 T02330158  RH  063%=      5-min Rain = 0
KVP1 180825Z 19011KT 23/16 A2998 RMK A01 T02330158  RH  063%=      5-min Rain = 0
KVP1 180826Z 19012KT 23/16 A2998 RMK A01 T02330158  RH  063%=      5-min Rain = 0
KVP1 180827Z 19012KT 23/16 A2998 RMK A01 T02330158  RH  063%=      5-min Rain = 0
KVP1 180828Z 19011KT 23/16 A2998 RMK A01 T02330158  RH  063%=      5-min Rain = 0
KVP1 180829Z 19011KT 23/16 A2998 RMK A01 T02330158  RH  063%=      5-min Rain = 0
KVP1 180830Z 19011KT 23/16 A2998 RMK A01 T02330159  RH  063%=      5-min Rain = 0
KVP1 180831Z 19011KT 23/16 A2998 RMK A01 T02330159  RH  063%=      5-min Rain = 0
KVP1 180832Z 19010KT 23/16 A2998 RMK A01 T02330158  RH  063%=      5-min Rain = 0
KVP1 180833Z 19011KT 23/16 A2998 RMK A01 T02330158  RH  063%=      5-min Rain = 0
KVP1 180834Z 19011KT 23/16 A2998 RMK A01 T02340158  RH  063%=      5-min Rain = 0
KVP1 180835Z 19011KT 23/16 A2998 RMK A01 T02340159  RH  063%=      5-min Rain = 0
KVP1 180836Z 19013KT 23/16 A2998 RMK A01 T02340159  RH  063%=      5-min Rain = 0
KVP1 180837Z 19012KT 23/16 A2998 RMK A01 T02340159  RH  063%=      5-min Rain = 0
KVP1 180838Z 19012KT 23/16 A2998 RMK A01 T02340159  RH  063%=      5-min Rain = 0
KVP1 180839Z 19012KT 23/16 A2998 RMK A01 T02340159  RH  063%=      5-min Rain = 0
KVP1 180840Z 19012KT 23/16 A2998 RMK A01 T02340159  RH  063%=      5-min Rain = 0
KVP1 180841Z 19012KT 23/16 A2998 RMK A01 T02340159  RH  063%=      5-min Rain = 0
KVP1 180842Z 19013KT 23/16 A2998 RMK A01 T02340159  RH  063%=      5-min Rain = 0
KVP1 180843Z 19011KT 23/16 A2998 RMK A01 T02340159  RH  063%=      5-min Rain = 0
KVP1 180844Z 19012KT 23/16 A2998 RMK A01 T02340159  RH  063%=      5-min Rain = 0
KVP1 180845Z 19011KT 23/16 A2998 RMK A01 T02340159  RH  063%=      5-min Rain = 0
KVP1 180846Z 19011KT 23/16 A2998 RMK A01 T02340159  RH  063%=      5-min Rain = 0
KVP1 180847Z 19011KT 23/16 A2998 RMK A01 T02340159  RH  063%=      5-min Rain = 0
KVP1 180848Z 20010KT 23/16 A2998 RMK A01 T02330159  RH  063%=      5-min Rain = 0
KVP1 180849Z 20010KT 23/16 A2998 RMK A01 T02330159  RH  063%=      5-min Rain = 0
KVP1 180850Z 19011KT 23/16 A2998 RMK A01 T02320159  RH  063%=      5-min Rain = 0
KVP1 180851Z 20012KT 23/16 A2998 RMK A01 T02330160  RH  064%=      5-min Rain = 0
KVP1 180852Z 19011KT 23/16 A2998 RMK A01 T02330160  RH  063%=      5-min Rain = 0
KVP1 180853Z 20010KT 23/16 A2998 RMK A01 T02330159  RH  063%=      5-min Rain = 0
KVP1 180854Z 20010KT 23/16 A2998 RMK A01 T02330160  RH  063%=      5-min Rain = 0
KVP1 180855Z 20009KT 23/16 A2998 RMK A01 T02320160  RH  064%=      5-min Rain = 0
KVP1 180856Z 20010KT 23/16 A2998 RMK A01 T02320160  RH  064%=      5-min Rain = 0
KVP1 180857Z 20010KT 23/16 A2998 RMK A01 T02320160  RH  064%=      5-min Rain = 0
KVP1 180858Z 20009KT 23/16 A2999 RMK A01 T02310160  RH  064%=      5-min Rain = 0
KVP1 180859Z 20010KT 23/16 A2999 RMK A01 T02310160  RH  064%=      5-min Rain = 0
KVP1 180900Z 20009KT 23/16 A2998 RMK A01 T02300160  RH  065%=      5-min Rain = 0
KVP1 180901Z 20009KT 23/16 A2998 RMK A01 T02300160  RH  065%=      5-min Rain = 0
KVP1 180902Z 20009KT 23/16 A2998 RMK A01 T02290160  RH  065%=      5-min Rain = 0
KVP1 180903Z 20010KT 23/16 A2998 RMK A01 T02290160  RH  065%=      5-min Rain = 0
KVP1 180904Z 20009KT 23/16 A2999 RMK A01 T02290160  RH  065%=      5-min Rain = 0
KVP1 180905Z 20009KT 23/16 A2999 RMK A01 T02280160  RH  065%=      5-min Rain = 0
KVP1 180906Z 20008KT 23/16 A2999 RMK A01 T02280160  RH  065%=      5-min Rain = 0
KVP1 180907Z 20009KT 23/16 A2999 RMK A01 T02270160  RH  066%=      5-min Rain = 0
KVP1 180908Z 20009KT 23/16 A2999 RMK A01 T02270160  RH  066%=      5-min Rain = 0
KVP1 180909Z 20009KT 23/16 A2999 RMK A01 T02270160  RH  066%=      5-min Rain = 0
KVP1 180910Z 20008KT 23/16 A2999 RMK A01 T02260160  RH  066%=      5-min Rain = 0
KVP1 180911Z 20008KT 23/16 A2999 RMK A01 T02260160  RH  066%=      5-min Rain = 0
KVP1 180912Z 21008KT 23/16 A2999 RMK A01 T02250160  RH  067%=      5-min Rain = 0
KVP1 180913Z 20008KT 23/16 A2999 RMK A01 T02250160  RH  067%=      5-min Rain = 0
KVP1 180914Z 20009KT 22/16 A2999 RMK A01 T02240160  RH  067%=      5-min Rain = 0
KVP1 180915Z 20008KT 22/16 A2999 RMK A01 T02240160  RH  067%=      5-min Rain = 0
KVP1 180916Z 20008KT 22/16 A2999 RMK A01 T02240161  RH  067%=      5-min Rain = 0
KVP1 180917Z 20009KT 22/16 A2999 RMK A01 T02230161  RH  068%=      5-min Rain = 0
KVP1 180918Z 20009KT 22/16 A2999 RMK A01 T02230160  RH  068%=      5-min Rain = 0
KVP1 180919Z 20009KT 22/16 A2999 RMK A01 T02230160  RH  068%=      5-min Rain = 0
KVP1 180920Z 20009KT 22/16 A2999 RMK A01 T02230161  RH  068%=      5-min Rain = 0
KVP1 180921Z 20009KT 22/16 A2999 RMK A01 T02230161  RH  068%=      5-min Rain = 0
KVP1 180922Z 20009KT 22/16 A2999 RMK A01 T02230161  RH  068%=      5-min Rain = 0
KVP1 180923Z 20009KT 22/16 A2999 RMK A01 T02230161  RH  068%=      5-min Rain = 0
KVP1 180924Z 20008KT 22/16 A2999 RMK A01 T02230161  RH  068%=      5-min Rain = 0
KVP1 180925Z 20009KT 22/16 A2999 RMK A01 T02230161  RH  068%=      5-min Rain = 0
KVP1 180926Z 21008KT 22/16 A2999 RMK A01 T02230161  RH  068%=      5-min Rain = 0
KVP1 180927Z 21008KT 22/16 A2999 RMK A01 T02230162  RH  068%=      5-min Rain = 0
KVP1 180928Z 21008KT 22/16 A2999 RMK A01 T02220161  RH  069%=      5-min Rain = 0
KVP1 180929Z 21008KT 22/16 A2999 RMK A01 T02210162  RH  069%=      5-min Rain = 0
KVP1 180930Z 22008KT 22/16 A2999 RMK A01 T02210162  RH  069%=      5-min Rain = 0
KVP1 180931Z 21007KT 22/16 A2999 RMK A01 T02200161  RH  069%=      5-min Rain = 0
KVP1 180932Z 21008KT 22/16 A2999 RMK A01 T02200162  RH  069%=      5-min Rain = 0
KVP1 180933Z 21008KT 22/16 A2999 RMK A01 T02190161  RH  070%=      5-min Rain = 0
KVP1 180934Z 21009KT 22/16 A2999 RMK A01 T02200162  RH  070%=      5-min Rain = 0
KVP1 180935Z 21009KT 22/16 A2999 RMK A01 T02200162  RH  070%=      5-min Rain = 0
KVP1 180936Z 21009KT 22/16 A2999 RMK A01 T02200162  RH  070%=      5-min Rain = 0
KVP1 180937Z 21009KT 22/16 A2999 RMK A01 T02200162  RH  070%=      5-min Rain = 0
KVP1 180938Z 21009KT 22/16 A2999 RMK A01 T02200163  RH  070%=      5-min Rain = 0
KVP1 180939Z 21009KT 22/16 A2999 RMK A01 T02200163  RH  070%=      5-min Rain = 0
KVP1 180940Z 21009KT 22/16 A2999 RMK A01 T02200162  RH  070%=      5-min Rain = 0
KVP1 180941Z 21009KT 22/16 A2999 RMK A01 T02200163  RH  070%=      5-min Rain = 0
KVP1 180942Z 21009KT 22/16 A2999 RMK A01 T02200163  RH  070%=      5-min Rain = 0
KVP1 180943Z 21009KT 22/16 A2999 RMK A01 T02200163  RH  070%=      5-min Rain = 0
KVP1 180944Z 21009KT 22/16 A2999 RMK A01 T02200163  RH  070%=      5-min Rain = 0
KVP1 180945Z 21009KT 22/16 A2999 RMK A01 T02200163  RH  070%=      5-min Rain = 0
KVP1 180946Z 21009KT 22/16 A2999 RMK A01 T02200163  RH  070%=      5-min Rain = 0
KVP1 180947Z 20010KT 22/16 A2999 RMK A01 T02200163  RH  070%=      5-min Rain = 0
KVP1 180948Z 20009KT 22/16 A2999 RMK A01 T02200163  RH  070%=      5-min Rain = 0
KVP1 180949Z 21009KT 22/16 A2999 RMK A01 T02210164  RH  070%=      5-min Rain = 0
KVP1 180950Z 21009KT 22/16 A2999 RMK A01 T02220164  RH  070%=      5-min Rain = 0
KVP1 180951Z 21010KT 22/16 A2999 RMK A01 T02220164  RH  070%=      5-min Rain = 0
KVP1 180952Z 21008KT 22/16 A2999 RMK A01 T02230164  RH  069%=      5-min Rain = 0
KVP1 180953Z 21008KT 22/16 A2999 RMK A01 T02220164  RH  069%=      5-min Rain = 0
KVP1 180954Z 22008KT 22/16 A2999 RMK A01 T02220164  RH  070%=      5-min Rain = 0
KVP1 180955Z 22007KT 22/16 A2999 RMK A01 T02220164  RH  070%=      5-min Rain = 0
KVP1 180956Z 22007KT 22/16 A2999 RMK A01 T02220164  RH  070%=      5-min Rain = 0
KVP1 180957Z 22008KT 22/17 A2999 RMK A01 T02220165  RH  070%=      5-min Rain = 0
KVP1 180958Z 21008KT 22/17 A2999 RMK A01 T02220165  RH  070%=      5-min Rain = 0
KVP1 180959Z 21008KT 22/17 A2999 RMK A01 T02220165  RH  070%=      5-min Rain = 0
KVP1 181000Z 21009KT 22/17 A2999 RMK A01 T02210165  RH  070%=      5-min Rain = 0
KVP1 181001Z 21008KT 22/17 A2999 RMK A01 T02210165  RH  070%=      5-min Rain = 0
KVP1 181002Z 21008KT 22/17 A2999 RMK A01 T02210165  RH  070%=      5-min Rain = 0
KVP1 181003Z 21009KT 22/17 A2999 RMK A01 T02210165  RH  070%=      5-min Rain = 0
KVP1 181004Z 21009KT 22/17 A2999 RMK A01 T02210165  RH  071%=      5-min Rain = 0
KVP1 181005Z 20010KT 22/17 A2999 RMK A01 T02210165  RH  070%=      5-min Rain = 0
KVP1 181006Z 20009KT 22/17 A2999 RMK A01 T02220165  RH  070%=      5-min Rain = 0
KVP1 181007Z 20009KT 22/17 A2999 RMK A01 T02220165  RH  070%=      5-min Rain = 0
KVP1 181008Z 20010KT 22/17 A2999 RMK A01 T02220165  RH  070%=      5-min Rain = 0
KVP1 181009Z 20009KT 22/17 A2999 RMK A01 T02220165  RH  070%=      5-min Rain = 0
KVP1 181010Z 20010KT 22/17 A2999 RMK A01 T02220165  RH  070%=      5-min Rain = 0
KVP1 181011Z 20010KT 22/17 A2999 RMK A01 T02220165  RH  070%=      5-min Rain = 0
KVP1 181012Z 20010KT 22/17 A2999 RMK A01 T02220166  RH  070%=      5-min Rain = 0
KVP1 181013Z 20011KT 22/17 A2999 RMK A01 T02220165  RH  070%=      5-min Rain = 0
KVP1 181014Z 20010KT 22/17 A2999 RMK A01 T02230165  RH  070%=      5-min Rain = 0
KVP1 181015Z 20010KT 22/17 A2999 RMK A01 T02230165  RH  070%=      5-min Rain = 0
KVP1 181016Z 20011KT 22/17 A2999 RMK A01 T02230165  RH  070%=      5-min Rain = 0
KVP1 181017Z 20010KT 22/17 A2999 RMK A01 T02230165  RH  070%=      5-min Rain = 0
KVP1 181018Z 20009KT 22/17 A2999 RMK A01 T02230165  RH  070%=      5-min Rain = 0
KVP1 181019Z 20009KT 22/17 A2999 RMK A01 T02230165  RH  070%=      5-min Rain = 0
KVP1 181020Z 20009KT 22/17 A2999 RMK A01 T02230165  RH  070%=      5-min Rain = 0
KVP1 181021Z 20009KT 22/17 A2999 RMK A01 T02230165  RH  070%=      5-min Rain = 0
KVP1 181022Z 20010KT 22/17 A2999 RMK A01 T02230165  RH  070%=      5-min Rain = 0
KVP1 181023Z 20009KT 22/17 A2999 RMK A01 T02230165  RH  070%=      5-min Rain = 0
KVP1 181024Z 19008KT 22/17 A2999 RMK A01 T02230165  RH  070%=      5-min Rain = 0
KVP1 181025Z 20009KT 22/17 A2999 RMK A01 T02230165  RH  070%=      5-min Rain = 0
KVP1 181026Z 19010KT 22/17 A2999 RMK A01 T02230165  RH  070%=      5-min Rain = 0
KVP1 181027Z 19009KT 22/17 A2999 RMK A01 T02230166  RH  070%=      5-min Rain = 0
KVP1 181028Z 19009KT 22/17 A2999 RMK A01 T02230165  RH  070%=      5-min Rain = 0
KVP1 181029Z 19010KT 22/17 A2999 RMK A01 T02230166  RH  070%=      5-min Rain = 0
KVP1 181030Z 19010KT 22/17 A2999 RMK A01 T02230166  RH  070%=      5-min Rain = 0
KVP1 181031Z 19010KT 22/17 A2999 RMK A01 T02230166  RH  070%=      5-min Rain = 0
KVP1 181032Z 19010KT 22/17 A2999 RMK A01 T02230166  RH  070%=      5-min Rain = 0
KVP1 181033Z 19010KT 22/17 A2999 RMK A01 T02240166  RH  070%=      5-min Rain = 0
KVP1 181034Z 19009KT 22/17 A2999 RMK A01 T02240166  RH  070%=      5-min Rain = 0
KVP1 181035Z 19010KT 22/17 A2999 RMK A01 T02240166  RH  070%=      5-min Rain = 0
KVP1 181036Z 19010KT 22/17 A2999 RMK A01 T02240166  RH  070%=      5-min Rain = 0
KVP1 181037Z 19009KT 22/17 A2999 RMK A01 T02240166  RH  070%=      5-min Rain = 0
KVP1 181038Z 19009KT 22/17 A2999 RMK A01 T02240166  RH  070%=      5-min Rain = 0
KVP1 181039Z 19009KT 22/17 A2999 RMK A01 T02230166  RH  070%=      5-min Rain = 0
KVP1 181040Z 18010KT 22/17 A2999 RMK A01 T02230166  RH  070%=      5-min Rain = 0
KVP1 181041Z 18010KT 22/17 A2999 RMK A01 T02230166  RH  070%=      5-min Rain = 0
KVP1 181042Z 18010KT 22/17 A2999 RMK A01 T02230166  RH  070%=      5-min Rain = 0
KVP1 181043Z 18011KT 22/17 A2999 RMK A01 T02230166  RH  070%=      5-min Rain = 0
KVP1 181044Z 18010KT 22/17 A2999 RMK A01 T02230165  RH  070%=      5-min Rain = 0
KVP1 181045Z 18010KT 22/17 A2999 RMK A01 T02230166  RH  070%=      5-min Rain = 0
KVP1 181046Z 18011KT 22/17 A2999 RMK A01 T02230166  RH  070%=      5-min Rain = 0
KVP1 181047Z 19010KT 22/17 A2999 RMK A01 T02230166  RH  070%=      5-min Rain = 0
KVP1 181048Z 18010KT 22/17 A2999 RMK A01 T02230166  RH  070%=      5-min Rain = 0
KVP1 181049Z 18010KT 22/17 A2999 RMK A01 T02230166  RH  070%=      5-min Rain = 0
KVP1 181050Z 19009KT 22/17 A2999 RMK A01 T02220166  RH  071%=      5-min Rain = 0
KVP1 181051Z 19009KT 22/17 A2999 RMK A01 T02220166  RH  071%=      5-min Rain = 0
KVP1 181052Z 19009KT 22/17 A2999 RMK A01 T02220166  RH  071%=      5-min Rain = 0
KVP1 181053Z 19009KT 22/17 A30 RMK A01 T02220166  RH  071%=      5-min Rain = 0
KVP1 181054Z 19009KT 22/17 A30 RMK A01 T02210166  RH  071%=      5-min Rain = 0
KVP1 181055Z 19010KT 22/17 A2999 RMK A01 T02210166  RH  071%=      5-min Rain = 0
KVP1 181056Z 19010KT 22/17 A2999 RMK A01 T02210166  RH  071%=      5-min Rain = 0
KVP1 181057Z 19009KT 22/17 A2999 RMK A01 T02210166  RH  071%=      5-min Rain = 0
KVP1 181058Z 19009KT 22/17 A2999 RMK A01 T02210166  RH  071%=      5-min Rain = 0
KVP1 181059Z 19009KT 22/17 A2999 RMK A01 T02210166  RH  071%=      5-min Rain = 0
KVP1 181100Z 19010KT 22/17 A2999 RMK A01 T02210167  RH  071%=      5-min Rain = 0
KVP1 181101Z 19010KT 22/17 A2999 RMK A01 T02210167  RH  071%=      5-min Rain = 0
KVP1 181102Z 20010KT 22/17 A2999 RMK A01 T02210167  RH  072%=      5-min Rain = 0
KVP1 181103Z 20010KT 22/17 A2999 RMK A01 T02210167  RH  072%=      5-min Rain = 0
KVP1 181104Z 20010KT 22/17 A30 RMK A01 T02200167  RH  072%=      5-min Rain = 0
KVP1 181105Z 19011KT 22/17 A30 RMK A01 T02200167  RH  072%=      5-min Rain = 0
KVP1 181106Z 20010KT 22/17 A30 RMK A01 T02210167  RH  072%=      5-min Rain = 0
KVP1 181107Z 20009KT 22/17 A30 RMK A01 T02200167  RH  071%=      5-min Rain = 0
KVP1 181108Z 20010KT 22/17 A30 RMK A01 T02210167  RH  072%=      5-min Rain = 0
KVP1 181109Z 20010KT 22/17 A30 RMK A01 T02210167  RH  072%=      5-min Rain = 0
KVP1 181110Z 20009KT 22/17 A30 RMK A01 T02200167  RH  072%=      5-min Rain = 0
KVP1 181111Z 20008KT 22/17 A30 RMK A01 T02210167  RH  072%=      5-min Rain = 0
KVP1 181112Z 20009KT 22/17 A30 RMK A01 T02200167  RH  072%=      5-min Rain = 0
KVP1 181113Z 20009KT 22/17 A30 RMK A01 T02200167  RH  072%=      5-min Rain = 0
KVP1 181114Z 20010KT 22/17 A30 RMK A01 T02200167  RH  072%=      5-min Rain = 0
KVP1 181115Z 20010KT 22/17 A30 RMK A01 T02200167  RH  072%=      5-min Rain = 0
KVP1 181116Z 20010KT 22/17 A30 RMK A01 T02200167  RH  072%=      5-min Rain = 0
KVP1 181117Z 20010KT 22/17 A30 RMK A01 T02200167  RH  072%=      5-min Rain = 0
KVP1 181118Z 19010KT 22/17 A30 RMK A01 T02200167  RH  072%=      5-min Rain = 0
KVP1 181119Z 19010KT 22/17 A30 RMK A01 T02200167  RH  072%=      5-min Rain = 0
KVP1 181120Z 19010KT 22/17 A30 RMK A01 T02190167  RH  072%=      5-min Rain = 0
KVP1 181121Z 20010KT 22/17 A30 RMK A01 T02200167  RH  072%=      5-min Rain = 0
KVP1 181122Z 19009KT 22/17 A30 RMK A01 T02200167  RH  072%=      5-min Rain = 0
KVP1 181123Z 20009KT 22/17 A30 RMK A01 T02200167  RH  072%=      5-min Rain = 0
KVP1 181124Z 19010KT 22/17 A30 RMK A01 T02190167  RH  072%=      5-min Rain = 0
KVP1 181125Z 20010KT 22/17 A30 RMK A01 T02190167  RH  072%=      5-min Rain = 0
KVP1 181126Z 19009KT 22/17 A2999 RMK A01 T02190167  RH  072%=      5-min Rain = 0
KVP1 181127Z 19009KT 22/17 A2999 RMK A01 T02190167  RH  072%=      5-min Rain = 0
KVP1 181128Z 19009KT 22/17 A2999 RMK A01 T02180167  RH  072%=      5-min Rain = 0
KVP1 181129Z 19009KT 22/17 A2999 RMK A01 T02180167  RH  073%=      5-min Rain = 0
KVP1 181130Z 19009KT 22/17 A2999 RMK A01 T02180167  RH  073%=      5-min Rain = 0
KVP1 181131Z 19009KT 22/17 A2999 RMK A01 T02180167  RH  073%=      5-min Rain = 0
KVP1 181132Z 19009KT 22/17 A2999 RMK A01 T02180167  RH  073%=      5-min Rain = 0
KVP1 181133Z 19010KT 22/17 A2999 RMK A01 T02180167  RH  073%=      5-min Rain = 0
KVP1 181134Z 19010KT 22/17 A2999 RMK A01 T02180167  RH  073%=      5-min Rain = 0
KVP1 181135Z 19009KT 22/17 A2999 RMK A01 T02180167  RH  073%=      5-min Rain = 0
KVP1 181136Z 19009KT 22/17 A2999 RMK A01 T02170167  RH  073%=      5-min Rain = 0
KVP1 181137Z 19010KT 22/17 A2999 RMK A01 T02170167  RH  073%=      5-min Rain = 0
KVP1 181138Z 19009KT 22/17 A2999 RMK A01 T02170167  RH  073%=      5-min Rain = 0
KVP1 181139Z 19009KT 22/17 A2999 RMK A01 T02160167  RH  073%=      5-min Rain = 0
KVP1 181140Z 19010KT 22/17 A2999 RMK A01 T02160166  RH  073%=      5-min Rain = 0
KVP1 181141Z 19010KT 22/17 A2999 RMK A01 T02160166  RH  073%=      5-min Rain = 0
KVP1 181142Z 19010KT 22/17 A2999 RMK A01 T02160166  RH  073%=      5-min Rain = 0
KVP1 181143Z 19009KT 22/17 A2999 RMK A01 T02160166  RH  073%=      5-min Rain = 0
KVP1 181144Z 19010KT 22/17 A2999 RMK A01 T02160166  RH  073%=      5-min Rain = 0
KVP1 181145Z 19009KT 22/17 A2999 RMK A01 T02160167  RH  073%=      5-min Rain = 0
KVP1 181146Z 19010KT 22/17 A2999 RMK A01 T02160166  RH  073%=      5-min Rain = 0
KVP1 181147Z 19010KT 22/17 A2999 RMK A01 T02160166  RH  073%=      5-min Rain = 0
KVP1 181148Z 19010KT 22/17 A2999 RMK A01 T02160166  RH  073%=      5-min Rain = 0
KVP1 181149Z 19009KT 22/17 A2999 RMK A01 T02160166  RH  073%=      5-min Rain = 0
KVP1 181150Z 19010KT 22/17 A2999 RMK A01 T02160166  RH  073%=      5-min Rain = 0
KVP1 181151Z 19010KT 22/17 A2999 RMK A01 T02160166  RH  073%=      5-min Rain = 0
KVP1 181152Z 19010KT 22/17 A2999 RMK A01 T02170166  RH  073%=      5-min Rain = 0
KVP1 181153Z 19010KT 22/17 A2999 RMK A01 T02170166  RH  073%=      5-min Rain = 0
KVP1 181154Z 19010KT 22/17 A2999 RMK A01 T02170166  RH  073%=      5-min Rain = 0
KVP1 181155Z 19009KT 22/17 A2999 RMK A01 T02170167  RH  073%=      5-min Rain = 0
KVP1 181156Z 19009KT 22/17 A2999 RMK A01 T02170167  RH  073%=      5-min Rain = 0
KVP1 181157Z 19010KT 22/17 A2999 RMK A01 T02170167  RH  073%=      5-min Rain = 0
KVP1 181158Z 19010KT 22/17 A2999 RMK A01 T02170166  RH  073%=      5-min Rain = 0
KVP1 181159Z 19009KT 22/17 A2999 RMK A01 T02170166  RH  073%=      5-min Rain = 0
KVP1 181200Z 19010KT 22/17 A2999 RMK A01 T02170167  RH  073%=      5-min Rain = 0
KVP1 181201Z 19009KT 22/17 A2999 RMK A01 T02170167  RH  073%=      5-min Rain = 0
KVP1 181202Z 18010KT 22/17 A2999 RMK A01 T02170167  RH  073%=      5-min Rain = 0
KVP1 181203Z 19009KT 22/17 A2999 RMK A01 T02170167  RH  073%=      5-min Rain = 0
KVP1 181204Z 18009KT 22/17 A2999 RMK A01 T02170167  RH  073%=      5-min Rain = 0
KVP1 181205Z 18010KT 22/17 A2999 RMK A01 T02170167  RH  073%=      5-min Rain = 0
KVP1 181206Z 19010KT 22/17 A2999 RMK A01 T02170166  RH  073%=      5-min Rain = 0
KVP1 181207Z 18011KT 22/17 A2999 RMK A01 T02180166  RH  072%=      5-min Rain = 0
KVP1 181208Z 19010KT 22/17 A2999 RMK A01 T02180166  RH  072%=      5-min Rain = 0
KVP1 181209Z 18012KT 22/17 A2999 RMK A01 T02190166  RH  072%=      5-min Rain = 0
KVP1 181210Z 18012KT 22/17 A2999 RMK A01 T02200166  RH  072%=      5-min Rain = 0
KVP1 181211Z 18010KT 22/17 A2999 RMK A01 T02200166  RH  071%=      5-min Rain = 0
KVP1 181212Z 18012KT 22/17 A2999 RMK A01 T02210166  RH  071%=      5-min Rain = 0
KVP1 181213Z 18012KT 22/17 A2999 RMK A01 T02210166  RH  071%=      5-min Rain = 0
KVP1 181214Z 18013KT 22/17 A2999 RMK A01 T02220166  RH  071%=      5-min Rain = 0
KVP1 181215Z 19012KT 22/17 A2999 RMK A01 T02220166  RH  071%=      5-min Rain = 0
KVP1 181216Z 19013KT 22/17 A2999 RMK A01 T02220166  RH  070%=      5-min Rain = 0
KVP1 181217Z 19011KT 22/17 A2999 RMK A01 T02230166  RH  070%=      5-min Rain = 0
KVP1 181218Z 19012KT 22/17 A2999 RMK A01 T02230166  RH  070%=      5-min Rain = 0
KVP1 181219Z 19013KT 22/17 A2999 RMK A01 T02240166  RH  070%=      5-min Rain = 0
KVP1 181220Z 18013KT 22/17 A2999 RMK A01 T02240166  RH  070%=      5-min Rain = 0
KVP1 181221Z 19012KT 23/17 A2999 RMK A01 T02250166  RH  069%=      5-min Rain = 0
KVP1 181222Z 19012KT 23/17 A2999 RMK A01 T02250166  RH  069%=      5-min Rain = 0
KVP1 181223Z 19013KT 23/17 A2999 RMK A01 T02250166  RH  069%=      5-min Rain = 0
KVP1 181224Z 19011KT 23/17 A2999 RMK A01 T02250166  RH  069%=      5-min Rain = 0
KVP1 181225Z 19013KT 23/17 A2999 RMK A01 T02250166  RH  069%=      5-min Rain = 0
KVP1 181226Z 19012KT 23/17 A2999 RMK A01 T02260166  RH  069%=      5-min Rain = 0
KVP1 181227Z 19013KT 23/17 A2999 RMK A01 T02260166  RH  069%=      5-min Rain = 0
KVP1 181228Z 19014KT 23/17 A2999 RMK A01 T02270166  RH  068%=      5-min Rain = 0
KVP1 181229Z 19013KT 23/17 A2999 RMK A01 T02280166  RH  068%=      5-min Rain = 0
KVP1 181230Z 19016G21KT 23/17 A2999 RMK A01 T02280166  RH  068%=      5-min Rain = 0
KVP1 181231Z 19013KT 23/17 A2999 RMK A01 T02290166  RH  067%=      5-min Rain = 0
KVP1 181232Z 18014KT 23/17 A2999 RMK A01 T02300166  RH  067%=      5-min Rain = 0
KVP1 181233Z 19013KT 23/17 A2999 RMK A01 T02300166  RH  067%=      5-min Rain = 0
KVP1 181234Z 19014KT 23/17 A2999 RMK A01 T02300166  RH  067%=      5-min Rain = 0
KVP1 181235Z 19013KT 23/17 A2999 RMK A01 T02310166  RH  067%=      5-min Rain = 0
KVP1 181236Z 19014KT 23/17 A2999 RMK A01 T02310166  RH  067%=      5-min Rain = 0
KVP1 181237Z 19014KT 23/17 A2999 RMK A01 T02310166  RH  067%=      5-min Rain = 0
KVP1 181238Z 19014KT 23/17 A2999 RMK A01 T02320166  RH  067%=      5-min Rain = 0
KVP1 181239Z 19014G19KT 23/17 A2999 RMK A01 T02320166  RH  066%=      5-min Rain = 0
KVP1 181240Z 19014KT 23/17 A2999 RMK A01 T02320166  RH  066%=      5-min Rain = 0
KVP1 181241Z 19016KT 23/17 A2999 RMK A01 T02330166  RH  066%=      5-min Rain = 0
KVP1 181242Z 19015KT 23/17 A2999 RMK A01 T02330166  RH  066%=      5-min Rain = 0
KVP1 181243Z 19016KT 23/17 A2999 RMK A01 T02330166  RH  066%=      5-min Rain = 0
KVP1 181244Z 19017KT 23/17 A2999 RMK A01 T02340166  RH  066%=      5-min Rain = 0
KVP1 181245Z 19016KT 24/17 A2999 RMK A01 T02350166  RH  066%=      5-min Rain = 0
KVP1 181246Z 19018KT 24/17 A2999 RMK A01 T02350166  RH  065%=      5-min Rain = 0
KVP1 181247Z 19017G23KT 24/17 A2999 RMK A01 T02350166  RH  065%=      5-min Rain = 0
KVP1 181248Z 19015KT 24/17 A2999 RMK A01 T02360166  RH  065%=      5-min Rain = 0
KVP1 181249Z 19015G20KT 24/17 A2999 RMK A01 T02360167  RH  065%=      5-min Rain = 0
KVP1 181250Z 19017KT 24/17 A2999 RMK A01 T02360166  RH  065%=      5-min Rain = 0
KVP1 181251Z 19016KT 24/17 A2999 RMK A01 T02370167  RH  065%=      5-min Rain = 0
KVP1 181252Z 19018KT 24/17 A2999 RMK A01 T02370167  RH  065%=      5-min Rain = 0
KVP1 181253Z 19015KT 24/17 A2999 RMK A01 T02370166  RH  064%=      5-min Rain = 0
KVP1 181254Z 19013G18KT 24/17 A2999 RMK A01 T02380167  RH  065%=      5-min Rain = 0
KVP1 181255Z 20015G20KT 24/17 A2999 RMK A01 T02390167  RH  064%=      5-min Rain = 0
KVP1 181256Z 19014KT 24/17 A2999 RMK A01 T02390168  RH  064%=      5-min Rain = 0
KVP1 181257Z 19014KT 24/17 A2999 RMK A01 T02390168  RH  064%=      5-min Rain = 0
KVP1 181258Z 19015KT 24/17 A2999 RMK A01 T02400168  RH  064%=      5-min Rain = 0
KVP1 181259Z 19016KT 24/17 A2999 RMK A01 T02400167  RH  064%=      5-min Rain = 0
KVP1 181300Z 19017KT 24/17 A2999 RMK A01 T02400167  RH  064%=      5-min Rain = 0
KVP1 181301Z 19015KT 24/17 A2999 RMK A01 T02410167  RH  063%=      5-min Rain = 0
KVP1 181302Z 19015KT 24/17 A2999 RMK A01 T02410168  RH  063%=      5-min Rain = 0
KVP1 181303Z 19017KT 24/17 A2999 RMK A01 T02420168  RH  063%=      5-min Rain = 0
KVP1 181304Z 19016KT 24/17 A2999 RMK A01 T02420168  RH  063%=      5-min Rain = 0
KVP1 181305Z 19015KT 24/17 A2999 RMK A01 T02420168  RH  063%=      5-min Rain = 0
KVP1 181306Z 19017KT 24/17 A2999 RMK A01 T02430167  RH  063%=      5-min Rain = 0
KVP1 181307Z 19016KT 24/17 A2999 RMK A01 T02430167  RH  063%=      5-min Rain = 0
KVP1 181308Z 19017KT 24/17 A2999 RMK A01 T02430167  RH  063%=      5-min Rain = 0
KVP1 181309Z 19018KT 24/17 A2999 RMK A01 T02440167  RH  062%=      5-min Rain = 0
KVP1 181310Z 19014G21KT 24/17 A2999 RMK A01 T02440168  RH  062%=      5-min Rain = 0
KVP1 181311Z 19016KT 25/17 A2999 RMK A01 T02450168  RH  062%=      5-min Rain = 0
KVP1 181312Z 19016KT 25/17 A2999 RMK A01 T02460168  RH  062%=      5-min Rain = 0
KVP1 181313Z 19017G22KT 25/17 A2999 RMK A01 T02460168  RH  062%=      5-min Rain = 0
KVP1 181314Z 19018G23KT 25/17 A2999 RMK A01 T02460168  RH  062%=      5-min Rain = 0
KVP1 181315Z 19016KT 25/17 A2999 RMK A01 T02460167  RH  062%=      5-min Rain = 0
KVP1 181316Z 19018KT 25/17 A2999 RMK A01 T02470168  RH  062%=      5-min Rain = 0
KVP1 181317Z 19015KT 25/17 A2999 RMK A01 T02470168  RH  061%=      5-min Rain = 0
KVP1 181318Z 19016KT 25/17 A2999 RMK A01 T02480169  RH  061%=      5-min Rain = 0
KVP1 181319Z 19015KT 25/17 A2999 RMK A01 T02490169  RH  061%=      5-min Rain = 0
KVP1 181320Z 19016KT 25/17 A2999 RMK A01 T02490168  RH  061%=      5-min Rain = 0
KVP1 181321Z 19015G22KT 25/17 A2999 RMK A01 T02500169  RH  061%=      5-min Rain = 0
KVP1 181322Z 19017KT 25/17 A2999 RMK A01 T02510169  RH  060%=      5-min Rain = 0
KVP1 181323Z 19014KT 25/17 A2999 RMK A01 T02510169  RH  060%=      5-min Rain = 0
KVP1 181324Z 19017KT 25/17 A2999 RMK A01 T02510169  RH  060%=      5-min Rain = 0
KVP1 181325Z 19017KT 25/17 A2999 RMK A01 T02520168  RH  060%=      5-min Rain = 0
KVP1 181326Z 19020KT 25/17 A2999 RMK A01 T02530168  RH  059%=      5-min Rain = 0
KVP1 181327Z 19018KT 25/17 A2999 RMK A01 T02530167  RH  059%=      5-min Rain = 0
KVP1 181328Z 19017KT 25/17 A2999 RMK A01 T02530168  RH  059%=      5-min Rain = 0
KVP1 181329Z 19018KT 25/17 A2999 RMK A01 T02540168  RH  059%=      5-min Rain = 0
KVP1 181330Z 19018KT 25/17 A2999 RMK A01 T02540168  RH  059%=      5-min Rain = 0
KVP1 181331Z 19016KT 25/17 A2999 RMK A01 T02540168  RH  059%=      5-min Rain = 0
KVP1 181332Z 19017KT 26/17 A2999 RMK A01 T02550169  RH  059%=      5-min Rain = 0
KVP1 181333Z 19020KT 26/17 A2999 RMK A01 T02560168  RH  058%=      5-min Rain = 0
KVP1 181334Z 19018KT 26/17 A2999 RMK A01 T02570168  RH  058%=      5-min Rain = 0
KVP1 181335Z 19017KT 26/17 A2999 RMK A01 T02570168  RH  058%=      5-min Rain = 0
KVP1 181336Z 19016KT 26/17 A2999 RMK A01 T02580169  RH  058%=      5-min Rain = 0
KVP1 181337Z 19018KT 26/17 A2999 RMK A01 T02580169  RH  058%=      5-min Rain = 0
KVP1 181338Z 19018KT 26/17 A2999 RMK A01 T02580168  RH  058%=      5-min Rain = 0
KVP1 181339Z 19019KT 26/17 A2998 RMK A01 T02580168  RH  058%=      5-min Rain = 0
KVP1 181340Z 19019KT 26/17 A2998 RMK A01 T02590168  RH  057%=      5-min Rain = 0
KVP1 181341Z 19020G26KT 26/17 A2999 RMK A01 T02600169  RH  057%=      5-min Rain = 0
KVP1 181342Z 20021KT 26/17 A2998 RMK A01 T02600167  RH  056%=      5-min Rain = 0
KVP1 181343Z 19018KT 26/17 A2999 RMK A01 T02610168  RH  057%=      5-min Rain = 0
KVP1 181344Z 19018KT 26/17 A2999 RMK A01 T02620168  RH  056%=      5-min Rain = 0
KVP1 181345Z 20020KT 26/17 A2998 RMK A01 T02620168  RH  056%=      5-min Rain = 0
KVP1 181346Z 19021KT 26/17 A2999 RMK A01 T02630168  RH  056%=      5-min Rain = 0
KVP1 181347Z 19019G24KT 26/17 A2999 RMK A01 T02630168  RH  056%=      5-min Rain = 0
KVP1 181348Z 19020G25KT 26/17 A2999 RMK A01 T02640168  RH  055%=      5-min Rain = 0
KVP1 181349Z 19020KT 26/17 A2999 RMK A01 T02640168  RH  055%=      5-min Rain = 0
KVP1 181350Z 20021KT 26/17 A2999 RMK A01 T02640167  RH  055%=      5-min Rain = 0
KVP1 181351Z 20018KT 27/17 A2999 RMK A01 T02650168  RH  055%=      5-min Rain = 0
KVP1 181352Z 20017KT 27/17 A2999 RMK A01 T02660168  RH  055%=      5-min Rain = 0
KVP1 181353Z 20019KT 27/17 A2999 RMK A01 T02670168  RH  055%=      5-min Rain = 0
KVP1 181354Z 19021G27KT 27/17 A2998 RMK A01 T02680167  RH  054%=      5-min Rain = 0
KVP1 181355Z 19022KT 27/17 A2999 RMK A01 T02680167  RH  054%=      5-min Rain = 0
KVP1 181356Z 19018G24KT 27/17 A2999 RMK A01 T02680167  RH  054%=      5-min Rain = 0
KVP1 181357Z 19021KT 27/17 A2999 RMK A01 T02680167  RH  054%=      5-min Rain = 0
KVP1 181358Z 20021G27KT 27/17 A2999 RMK A01 T02690167  RH  054%=      5-min Rain = 0
KVP1 181359Z 20018G25KT 27/17 A2998 RMK A01 T02690166  RH  053%=      5-min Rain = 0
KVP1 181400Z 20018KT 27/17 A2999 RMK A01 T02700167  RH  053%=      5-min Rain = 0
KVP1 181401Z 19017G22KT 27/17 A2999 RMK A01 T02710168  RH  053%=      5-min Rain = 0
KVP1 181402Z 19018G23KT 27/17 A2999 RMK A01 T02730168  RH  053%=      5-min Rain = 0
KVP1 181403Z 19019KT 27/17 A2999 RMK A01 T02730168  RH  053%=      5-min Rain = 0
KVP1 181404Z 19019KT 27/17 A2999 RMK A01 T02730167  RH  052%=      5-min Rain = 0
KVP1 181405Z 19016KT 27/17 A2999 RMK A01 T02730167  RH  052%=      5-min Rain = 0
KVP1 181406Z 19019KT 27/17 A2999 RMK A01 T02730168  RH  052%=      5-min Rain = 0
KVP1 181407Z 19019G24KT 27/17 A2999 RMK A01 T02740168  RH  052%=      5-min Rain = 0
KVP1 181408Z 20021KT 27/17 A2998 RMK A01 T02740166  RH  052%=      5-min Rain = 0
KVP1 181409Z 20021G26KT 27/17 A2998 RMK A01 T02740165  RH  051%=      5-min Rain = 0
KVP1 181410Z 19020KT 27/17 A2998 RMK A01 T02740166  RH  052%=      5-min Rain = 0
KVP1 181411Z 20019KT 27/17 A2999 RMK A01 T02740166  RH  052%=      5-min Rain = 0
KVP1 181412Z 20019KT 28/17 A2999 RMK A01 T02750166  RH  052%=      5-min Rain = 0
KVP1 181413Z 20017KT 28/17 A2999 RMK A01 T02750167  RH  052%=      5-min Rain = 0
KVP1 181414Z 21021KT 28/17 A2999 RMK A01 T02770167  RH  051%=      5-min Rain = 0
KVP1 181415Z 20022G27KT 28/17 A2999 RMK A01 T02770165  RH  051%=      5-min Rain = 0
KVP1 181416Z 20023KT 28/17 A2999 RMK A01 T02770166  RH  051%=      5-min Rain = 0
KVP1 181417Z 20020KT 28/17 A2999 RMK A01 T02770165  RH  051%=      5-min Rain = 0
KVP1 181418Z 20018KT 28/17 A2999 RMK A01 T02780166  RH  051%=      5-min Rain = 0
KVP1 181419Z 20021KT 28/17 A2999 RMK A01 T02790166  RH  050%=      5-min Rain = 0
KVP1 181420Z 21021KT 28/17 A2999 RMK A01 T02800166  RH  050%=      5-min Rain = 0
KVP1 181421Z 20019G24KT 28/17 A2999 RMK A01 T02790166  RH  050%=      5-min Rain = 0
KVP1 181422Z 20021KT 28/17 A2999 RMK A01 T02790166  RH  050%=      5-min Rain = 0
KVP1 181423Z 20018KT 28/17 A2999 RMK A01 T02800166  RH  050%=      5-min Rain = 0
KVP1 181424Z 20015KT 28/17 A2999 RMK A01 T02810167  RH  050%=      5-min Rain = 0
KVP1 181425Z 20016KT 28/17 A2999 RMK A01 T02840168  RH  049%=      5-min Rain = 0
KVP1 181426Z 20017KT 29/17 A2999 RMK A01 T02850168  RH  049%=      5-min Rain = 0
KVP1 181427Z 20015KT 29/17 A2999 RMK A01 T02850169  RH  049%=      5-min Rain = 0
KVP1 181428Z 20015KT 29/17 A2999 RMK A01 T02870167  RH  048%=      5-min Rain = 0
KVP1 181429Z 21019G26KT 29/17 A2998 RMK A01 T02880167  RH  048%=      5-min Rain = 0
KVP1 181430Z 20018G23KT 29/17 A2998 RMK A01 T02870165  RH  047%=      5-min Rain = 0
KVP1 181431Z 21019G25KT 29/17 A2998 RMK A01 T02860166  RH  048%=      5-min Rain = 0
KVP1 181432Z 21024G29KT 29/16 A2998 RMK A01 T02850164  RH  048%=      5-min Rain = 0
KVP1 181433Z 20022KT 29/16 A2998 RMK A01 T02850164  RH  048%=      5-min Rain = 0
KVP1 181434Z 21018KT 28/16 A2998 RMK A01 T02840164  RH  048%=      5-min Rain = 0
KVP1 181435Z 20020G25KT 29/16 A2998 RMK A01 T02850164  RH  048%=      5-min Rain = 0
KVP1 181436Z 20018G24KT 29/17 A2999 RMK A01 T02860165  RH  048%=      5-min Rain = 0
KVP1 181437Z 20020KT 29/17 A2999 RMK A01 T02860166  RH  048%=      5-min Rain = 0
KVP1 181438Z 20018KT 29/17 A2999 RMK A01 T02880166  RH  048%=      5-min Rain = 0
KVP1 181439Z 20019KT 29/17 A2998 RMK A01 T02880165  RH  047%=      5-min Rain = 0
KVP1 181440Z 20018KT 29/17 A2999 RMK A01 T02880166  RH  048%=      5-min Rain = 0
KVP1 181441Z 20020G25KT 29/17 A2999 RMK A01 T02890165  RH  047%=      5-min Rain = 0
KVP1 181442Z 20021KT 29/17 A2998 RMK A01 T02890165  RH  047%=      5-min Rain = 0
KVP1 181443Z 20019KT 29/17 A2999 RMK A01 T02880165  RH  047%=      5-min Rain = 0
KVP1 181444Z 21015G20KT 29/17 A2999 RMK A01 T02880166  RH  048%=      5-min Rain = 0
KVP1 181445Z 20020KT 29/17 A2998 RMK A01 T02910167  RH  047%=      5-min Rain = 0
KVP1 181446Z 20021G27KT 29/17 A2998 RMK A01 T02920167  RH  047%=      5-min Rain = 0
KVP1 181447Z 20021G27KT 29/17 A2998 RMK A01 T02910166  RH  047%=      5-min Rain = 0
KVP1 181448Z 20017KT 29/17 A2998 RMK A01 T02890166  RH  047%=      5-min Rain = 0
KVP1 181449Z 20019KT 29/17 A2998 RMK A01 T02900166  RH  047%=      5-min Rain = 0
KVP1 181450Z 19017G22KT 29/17 A2998 RMK A01 T02910168  RH  048%=      5-min Rain = 0
KVP1 181451Z 20018KT 29/17 A2998 RMK A01 T02920168  RH  047%=      5-min Rain = 0
KVP1 181452Z 21018KT 29/17 A2998 RMK A01 T02940167  RH  046%=      5-min Rain = 0
KVP1 181453Z 21018KT 29/17 A2998 RMK A01 T02940167  RH  046%=      5-min Rain = 0
KVP1 181454Z 21016KT 29/17 A2998 RMK A01 T02930167  RH  047%=      5-min Rain = 0
KVP1 181455Z 20015KT 29/17 A2998 RMK A01 T02940169  RH  047%=      5-min Rain = 0
KVP1 181456Z 21020G25KT 30/17 A2998 RMK A01 T02970169  RH  046%=      5-min Rain = 0
KVP1 181457Z 21019KT 30/17 A2998 RMK A01 T02960167  RH  046%=      5-min Rain = 0
KVP1 181458Z 19020KT 30/17 A2998 RMK A01 T02950167  RH  046%=      5-min Rain = 0
KVP1 181459Z 20021KT 30/17 A2998 RMK A01 T02950167  RH  046%=      5-min Rain = 0
KVP1 181500Z 20021KT 30/17 A2998 RMK A01 T02950165  RH  045%=      5-min Rain = 0
KVP1 181501Z 21022G27KT 30/16 A2998 RMK A01 T02950164  RH  045%=      5-min Rain = 0
KVP1 181502Z 21019KT 30/16 A2998 RMK A01 T02950164  RH  045%=      5-min Rain = 0
KVP1 181503Z 21020G25KT 30/16 A2998 RMK A01 T02960164  RH  045%=      5-min Rain = 0
KVP1 181504Z 21021KT 30/16 A2998 RMK A01 T02970164  RH  045%=      5-min Rain = 0
KVP1 181505Z 21021KT 30/17 A2998 RMK A01 T02970165  RH  045%=      5-min Rain = 0
KVP1 181506Z 21023KT 30/16 A2998 RMK A01 T02960164  RH  045%=      5-min Rain = 0
KVP1 181507Z 21023KT 30/16 A2998 RMK A01 T02960164  RH  045%=      5-min Rain = 0
KVP1 181508Z 20020G26KT 30/16 A2998 RMK A01 T02970163  RH  044%=      5-min Rain = 0
KVP1 181509Z 20018KT 30/17 A2998 RMK A01 T02980165  RH  045%=      5-min Rain = 0
KVP1 181510Z 21018G23KT 30/17 A2998 RMK A01 T03000165  RH  044%=      5-min Rain = 0
KVP1 181511Z 21020G25KT 30/17 A2998 RMK A01 T03020165  RH  044%=      5-min Rain = 0
KVP1 181512Z 21022KT 30/16 A2998 RMK A01 T03010164  RH  044%=      5-min Rain = 0
KVP1 181513Z 21020KT 30/16 A2997 RMK A01 T03000163  RH  044%=      5-min Rain = 0
KVP1 181514Z 20015KT 30/17 A2998 RMK A01 T03000165  RH  044%=      5-min Rain = 0
KVP1 181515Z 20021KT 30/17 A2998 RMK A01 T03040167  RH  044%=      5-min Rain = 0
KVP1 181516Z 20021G26KT 30/17 A2998 RMK A01 T03040166  RH  043%=      5-min Rain = 0
KVP1 181517Z 20022KT 30/16 A2998 RMK A01 T03030164  RH  043%=      5-min Rain = 0
KVP1 181518Z 20021KT 30/16 A2998 RMK A01 T03010163  RH  043%=      5-min Rain = 0
KVP1 181519Z 21021KT 30/16 A2997 RMK A01 T03010163  RH  043%=      5-min Rain = 0
KVP1 181520Z 21020G25KT 30/16 A2997 RMK A01 T03020163  RH  043%=      5-min Rain = 0
KVP1 181521Z 21018KT 30/16 A2998 RMK A01 T03030164  RH  043%=      5-min Rain = 0
KVP1 181522Z 21018G23KT 30/16 A2998 RMK A01 T03040164  RH  043%=      5-min Rain = 0
KVP1 181523Z 21020G25KT 30/17 A2997 RMK A01 T03040165  RH  043%=      5-min Rain = 0
KVP1 181524Z 21020KT 30/17 A2997 RMK A01 T03040165  RH  043%=      5-min Rain = 0
KVP1 181525Z 21017KT 30/17 A2998 RMK A01 T03030165  RH  043%=      5-min Rain = 0
KVP1 181526Z 21017KT 30/16 A2997 RMK A01 T03040164  RH  043%=      5-min Rain = 0
KVP1 181527Z 19019G24KT 30/17 A2998 RMK A01 T03040166  RH  043%=      5-min Rain = 0
KVP1 181528Z 20018KT 30/17 A2998 RMK A01 T03040165  RH  043%=      5-min Rain = 0
KVP1 181529Z 20019KT 31/17 A2997 RMK A01 T03050166  RH  043%=      5-min Rain = 0
KVP1 181530Z 20022KT 31/17 A2998 RMK A01 T03050165  RH  043%=      5-min Rain = 0
KVP1 181531Z 20022KT 31/16 A2998 RMK A01 T03050164  RH  043%=      5-min Rain = 0
KVP1 181532Z 20017G22KT 30/17 A2998 RMK A01 T03040165  RH  043%=      5-min Rain = 0
KVP1 181533Z 20017KT 30/17 A2998 RMK A01 T03040165  RH  043%=      5-min Rain = 0
KVP1 181534Z 20021KT 31/17 A2998 RMK A01 T03060165  RH  043%=      5-min Rain = 0
KVP1 181535Z 20019KT 31/17 A2997 RMK A01 T03070165  RH  042%=      5-min Rain = 0
KVP1 181536Z 20015KT 31/17 A2998 RMK A01 T03060167  RH  043%=      5-min Rain = 0
KVP1 181537Z 20020KT 31/17 A2998 RMK A01 T03090166  RH  042%=      5-min Rain = 0
KVP1 181538Z 20018KT 31/17 A2998 RMK A01 T03100167  RH  042%=      5-min Rain = 0
KVP1 181539Z 21019KT 31/17 A2998 RMK A01 T03100166  RH  042%=      5-min Rain = 0
KVP1 181540Z 21019KT 31/17 A2998 RMK A01 T03080166  RH  043%=      5-min Rain = 0
KVP1 181541Z 20020KT 31/17 A2998 RMK A01 T03070166  RH  043%=      5-min Rain = 0
KVP1 181542Z 20019KT 31/17 A2998 RMK A01 T03050166  RH  043%=      5-min Rain = 0
KVP1 181543Z 20017KT 31/17 A2998 RMK A01 T03060167  RH  043%=      5-min Rain = 0
KVP1 181544Z 21018KT 31/17 A2998 RMK A01 T03090168  RH  043%=      5-min Rain = 0
KVP1 181545Z 20018G23KT 31/17 A2998 RMK A01 T03110168  RH  042%=      5-min Rain = 0
KVP1 181546Z 21019KT 31/17 A2998 RMK A01 T03110168  RH  042%=      5-min Rain = 0
KVP1 181547Z 21017KT 31/17 A2998 RMK A01 T03100166  RH  042%=      5-min Rain = 0
KVP1 181548Z 21017G22KT 31/17 A2998 RMK A01 T03100167  RH  042%=      5-min Rain = 0
KVP1 181549Z 20019KT 31/16 A2998 RMK A01 T03130164  RH  041%=      5-min Rain = 0
KVP1 181550Z 20018G24KT 31/16 A2998 RMK A01 T03120164  RH  041%=      5-min Rain = 0
KVP1 181551Z 20015KT 31/17 A2998 RMK A01 T03130167  RH  042%=      5-min Rain = 0
KVP1 181552Z 20018G23KT 32/17 A2998 RMK A01 T03170166  RH  040%=      5-min Rain = 0
KVP1 181553Z 21019KT 32/17 A2998 RMK A01 T03180165  RH  040%=      5-min Rain = 0
KVP1 181554Z 20017KT 32/17 A2998 RMK A01 T03150165  RH  040%=      5-min Rain = 0
KVP1 181555Z 20020G25KT 31/16 A2998 RMK A01 T03140164  RH  041%=      5-min Rain = 0
KVP1 181556Z 21017KT 31/16 A2998 RMK A01 T03120164  RH  041%=      5-min Rain = 0
KVP1 181557Z 22019KT 31/17 A2998 RMK A01 T03120166  RH  041%=      5-min Rain = 0
KVP1 181558Z 22019G24KT 31/17 A2998 RMK A01 T03140165  RH  041%=      5-min Rain = 0
KVP1 181559Z 22013KT 31/17 A2998 RMK A01 T03130165  RH  041%=      5-min Rain = 0
KVP1 181600Z 23017KT 32/17 A2998 RMK A01 T03160166  RH  040%=      5-min Rain = 0
KVP1 181601Z 23020KT 32/16 A2998 RMK A01 T03190164  RH  039%=      5-min Rain = 0
KVP1 181602Z 22018KT 32/16 A2998 RMK A01 T03190164  RH  039%=      5-min Rain = 0
KVP1 181603Z 22016KT 32/16 A2998 RMK A01 T03190164  RH  039%=      5-min Rain = 0
KVP1 181604Z 22016G21KT 32/17 A2998 RMK A01 T03210166  RH  039%=      5-min Rain = 0
KVP1 181605Z 22015G20KT 32/17 A2998 RMK A01 T03230167  RH  039%=      5-min Rain = 0
KVP1 181606Z 21017KT 33/17 A2998 RMK A01 T03250166  RH  039%=      5-min Rain = 0
KVP1 181607Z 22017KT 33/17 A2998 RMK A01 T03250166  RH  039%=      5-min Rain = 0
KVP1 181608Z 21017KT 32/17 A2998 RMK A01 T03220167  RH  039%=      5-min Rain = 0
KVP1 181609Z 22017KT 32/17 A2998 RMK A01 T03220166  RH  039%=      5-min Rain = 0
KVP1 181610Z 21016G21KT 32/17 A2998 RMK A01 T03210167  RH  040%=      5-min Rain = 0
KVP1 181611Z 20016KT 32/17 A2998 RMK A01 T03210166  RH  039%=      5-min Rain = 0
KVP1 181612Z 20017KT 32/17 A2998 RMK A01 T03210167  RH  040%=      5-min Rain = 0
KVP1 181613Z 21014KT 32/17 A2998 RMK A01 T03200168  RH  040%=      5-min Rain = 0
KVP1 181614Z 22016KT 32/17 A2998 RMK A01 T03210168  RH  040%=      5-min Rain = 0
KVP1 181615Z 22014G19KT 32/17 A2998 RMK A01 T03230168  RH  039%=      5-min Rain = 0
KVP1 181616Z 22018KT 33/17 A2998 RMK A01 T03250166  RH  038%=      5-min Rain = 0
KVP1 181617Z 22016KT 32/17 A2998 RMK A01 T03220166  RH  039%=      5-min Rain = 0
KVP1 181618Z 21015KT 32/17 A2998 RMK A01 T03210166  RH  040%=      5-min Rain = 0
KVP1 181619Z 20015KT 32/17 A2998 RMK A01 T03200168  RH  040%=      5-min Rain = 0
KVP1 181620Z 21016KT 32/17 A2998 RMK A01 T03210167  RH  040%=      5-min Rain = 0
KVP1 181621Z 21017KT 32/17 A2998 RMK A01 T03200167  RH  040%=      5-min Rain = 0
KVP1 181622Z 21013KT 32/17 A2998 RMK A01 T03190168  RH  040%=      5-min Rain = 0
KVP1 181623Z 20015KT 32/17 A2998 RMK A01 T03200168  RH  040%=      5-min Rain = 0
KVP1 181624Z 20012KT 32/17 A2998 RMK A01 T03240171  RH  040%=      5-min Rain = 0
KVP1 181625Z 20018KT 33/17 A2998 RMK A01 T03300170  RH  039%=      5-min Rain = 0
KVP1 181626Z 19018KT 33/17 A2998 RMK A01 T03280169  RH  039%=      5-min Rain = 0
KVP1 181627Z 21012KT 32/17 A2998 RMK A01 T03240167  RH  039%=      5-min Rain = 0
KVP1 181628Z 21012KT 32/17 A2998 RMK A01 T03240167  RH  039%=      5-min Rain = 0
KVP1 181629Z 22014G19KT 32/17 A2998 RMK A01 T03230168  RH  040%=      5-min Rain = 0
KVP1 181630Z 21015KT 33/17 A2998 RMK A01 T03270167  RH  038%=      5-min Rain = 0
KVP1 181631Z 20017KT 33/17 A2998 RMK A01 T03290166  RH  038%=      5-min Rain = 0
KVP1 181632Z 20016KT 33/17 A2998 RMK A01 T03300167  RH  038%=      5-min Rain = 0
KVP1 181633Z 21013KT 33/17 A2998 RMK A01 T03280166  RH  038%=      5-min Rain = 0
KVP1 181634Z 21014KT 33/17 A2998 RMK A01 T03250166  RH  039%=      5-min Rain = 0
KVP1 181635Z 19014KT 33/17 A2998 RMK A01 T03270168  RH  039%=      5-min Rain = 0
KVP1 181636Z 20019KT 33/17 A2998 RMK A01 T03310165  RH  037%=      5-min Rain = 0
KVP1 181637Z 21017G22KT 33/16 A2998 RMK A01 T03310164  RH  037%=      5-min Rain = 0
KVP1 181638Z 22012KT 33/17 A2998 RMK A01 T03310166  RH  037%=      5-min Rain = 0
KVP1 181639Z 19014KT 33/17 A2998 RMK A01 T03330165  RH  037%=      5-min Rain = 0
KVP1 181640Z 19016KT 33/17 A2998 RMK A01 T03330165  RH  037%=      5-min Rain = 0
KVP1 181641Z 20017G23KT 33/17 A2998 RMK A01 T03320165  RH  037%=      5-min Rain = 0
KVP1 181642Z 20019KT 33/16 A2998 RMK A01 T03320164  RH  037%=      5-min Rain = 0
KVP1 181643Z 19016KT 33/16 A2998 RMK A01 T03320164  RH  037%=      5-min Rain = 0
KVP1 181644Z 20013G19KT 33/17 A2998 RMK A01 T03330165  RH  037%=      5-min Rain = 0
KVP1 181645Z 22015KT 34/17 A2998 RMK A01 T03350165  RH  036%=      5-min Rain = 0
KVP1 181646Z 21013KT 33/17 A2998 RMK A01 T03340165  RH  036%=      5-min Rain = 0
KVP1 181647Z 20014G19KT 34/17 A2997 RMK A01 T03350167  RH  037%=      5-min Rain = 0
KVP1 181648Z 21019KT 34/16 A2997 RMK A01 T03360164  RH  036%=      5-min Rain = 0
KVP1 181649Z 21016KT 34/16 A2998 RMK A01 T03360164  RH  036%=      5-min Rain = 0
KVP1 181650Z 22018KT 34/16 A2998 RMK A01 T03360163  RH  036%=      5-min Rain = 0
KVP1 181651Z 22014KT 33/16 A2997 RMK A01 T03320163  RH  036%=      5-min Rain = 0
KVP1 181652Z 21015KT 33/16 A2997 RMK A01 T03310164  RH  037%=      5-min Rain = 0
KVP1 181653Z 21018KT 33/16 A2997 RMK A01 T03330162  RH  036%=      5-min Rain = 0
KVP1 181654Z 20014KT 33/16 A2997 RMK A01 T03340163  RH  036%=      5-min Rain = 0
KVP1 181655Z 21014KT 34/17 A2997 RMK A01 T03380166  RH  036%=      5-min Rain = 0
KVP1 181656Z 21017KT 34/16 A2997 RMK A01 T03410164  RH  035%=      5-min Rain = 0
KVP1 181657Z 20013KT 34/16 A2997 RMK A01 T03360162  RH  035%=      5-min Rain = 0
KVP1 181658Z 21018KT 33/16 A2997 RMK A01 T03340163  RH  036%=      5-min Rain = 0
KVP1 181659Z 21018KT 34/16 A2997 RMK A01 T03360163  RH  035%=      5-min Rain = 0
KVP1 181700Z 22016KT 34/16 A2997 RMK A01 T03360164  RH  036%=      5-min Rain = 0
KVP1 181701Z 22016KT 34/16 A2997 RMK A01 T03350164  RH  036%=      5-min Rain = 0
KVP1 181702Z 22013KT 34/16 A2997 RMK A01 T03350161  RH  035%=      5-min Rain = 0
KVP1 181703Z 20015KT 34/16 A2997 RMK A01 T03370163  RH  035%=      5-min Rain = 0
KVP1 181704Z 20019KT 34/16 A2997 RMK A01 T03380163  RH  035%=      5-min Rain = 0
KVP1 181705Z 21016KT 34/16 A2997 RMK A01 T03370161  RH  035%=      5-min Rain = 0
KVP1 181706Z 21015KT 34/16 A2997 RMK A01 T03370162  RH  035%=      5-min Rain = 0
KVP1 181707Z 21015G20KT 34/16 A2997 RMK A01 T03370162  RH  035%=      5-min Rain = 0
KVP1 181708Z 22017KT 34/16 A2997 RMK A01 T03370161  RH  035%=      5-min Rain = 0
KVP1 181709Z 22015KT 34/16 A2997 RMK A01 T03360161  RH  035%=      5-min Rain = 0
KVP1 181710Z 23015G20KT 34/16 A2997 RMK A01 T03350164  RH  036%=      5-min Rain = 0
KVP1 181711Z 22017G23KT 34/16 A2997 RMK A01 T03370164  RH  036%=      5-min Rain = 0
KVP1 181712Z 20016KT 34/17 A2997 RMK A01 T03410166  RH  035%=      5-min Rain = 0
KVP1 181713Z 20016KT 34/17 A2997 RMK A01 T03420165  RH  035%=      5-min Rain = 0
KVP1 181714Z 20013KT 34/17 A2997 RMK A01 T03410165  RH  035%=      5-min Rain = 0
KVP1 181715Z 21012KT 34/17 A2997 RMK A01 T03410165  RH  035%=      5-min Rain = 0
KVP1 181716Z 20016G21KT 35/17 A2997 RMK A01 T03450165  RH  034%=      5-min Rain = 0
KVP1 181717Z 20015G20KT 34/16 A2997 RMK A01 T03430164  RH  035%=      5-min Rain = 0
KVP1 181718Z 19018KT 34/17 A2997 RMK A01 T03410166  RH  035%=      5-min Rain = 0
KVP1 181719Z 20017KT 34/16 A2997 RMK A01 T03420164  RH  035%=      5-min Rain = 0
KVP1 181720Z 20018KT 34/16 A2996 RMK A01 T03420163  RH  034%=      5-min Rain = 0
KVP1 181721Z 21017KT 34/16 A2996 RMK A01 T03400163  RH  035%=      5-min Rain = 0
KVP1 181722Z 20015KT 34/16 A2996 RMK A01 T03410163  RH  035%=      5-min Rain = 0
KVP1 181723Z 21018KT 34/16 A2996 RMK A01 T03410162  RH  034%=      5-min Rain = 0
KVP1 181724Z 21018KT 34/17 A2996 RMK A01 T03430166  RH  035%=      5-min Rain = 0
KVP1 181725Z 21015G20KT 34/17 A2996 RMK A01 T03440166  RH  035%=      5-min Rain = 0
KVP1 181726Z 21016KT 34/17 A2996 RMK A01 T03440166  RH  035%=      5-min Rain = 0
KVP1 181727Z 20017G22KT 35/17 A2996 RMK A01 T03460167  RH  035%=      5-min Rain = 0
KVP1 181728Z 20017KT 35/17 A2996 RMK A01 T03450166  RH  034%=      5-min Rain = 0
KVP1 181729Z 20015G20KT 35/17 A2996 RMK A01 T03450166  RH  035%=      5-min Rain = 0
KVP1 181730Z 20017G24KT 35/17 A2996 RMK A01 T03460166  RH  034%=      5-min Rain = 0
KVP1 181731Z 19018G23KT 35/16 A2996 RMK A01 T03470163  RH  033%=      5-min Rain = 0
KVP1 181732Z 20017KT 35/16 A2996 RMK A01 T03470164  RH  034%=      5-min Rain = 0
KVP1 181733Z 19019KT 35/16 A2996 RMK A01 T03450163  RH  034%=      5-min Rain = 0
KVP1 181734Z 19016KT 34/16 A2996 RMK A01 T03430164  RH  034%=      5-min Rain = 0
KVP1 181735Z 19014KT 34/16 A2996 RMK A01 T03420162  RH  034%=      5-min Rain = 0
KVP1 181736Z 19014KT 34/17 A2996 RMK A01 T03410166  RH  035%=      5-min Rain = 0
KVP1 181737Z 19016KT 34/17 A2996 RMK A01 T03430165  RH  035%=      5-min Rain = 0
KVP1 181738Z 21019KT 34/16 A2996 RMK A01 T03440164  RH  034%=      5-min Rain = 0
KVP1 181739Z 20019KT 35/16 A2996 RMK A01 T03460160  RH  033%=      5-min Rain = 0
KVP1 181740Z 20018KT 35/16 A2996 RMK A01 T03450163  RH  034%=      5-min Rain = 0
KVP1 181741Z 20015KT 35/16 A2996 RMK A01 T03450164  RH  034%=      5-min Rain = 0
KVP1 181742Z 20014KT 35/17 A2996 RMK A01 T03460165  RH  034%=      5-min Rain = 0
KVP1 181743Z 19015KT 35/17 A2996 RMK A01 T03450166  RH  035%=      5-min Rain = 0
KVP1 181744Z 18015G20KT 35/17 A2996 RMK A01 T03460167  RH  035%=      5-min Rain = 0
KVP1 181745Z 20018KT 35/17 A2996 RMK A01 T03520167  RH  033%=      5-min Rain = 0
KVP1 181746Z 20019G24KT 35/16 A2996 RMK A01 T03530161  RH  032%=      5-min Rain = 0
KVP1 181747Z 20017KT 35/16 A2996 RMK A01 T03490162  RH  033%=      5-min Rain = 0
KVP1 181748Z 21015KT 35/17 A2996 RMK A01 T03460165  RH  034%=      5-min Rain = 0
KVP1 181749Z 21014KT 35/17 A2996 RMK A01 T03490167  RH  034%=      5-min Rain = 0
KVP1 181750Z 20015G20KT 35/17 A2996 RMK A01 T03530167  RH  033%=      5-min Rain = 0
KVP1 181751Z 21018G23KT 35/17 A2996 RMK A01 T03540167  RH  033%=      5-min Rain = 0
KVP1 181752Z 20017KT 35/16 A2996 RMK A01 T03530163  RH  032%=      5-min Rain = 0
KVP1 181753Z 20020KT 35/16 A2996 RMK A01 T03540164  RH  033%=      5-min Rain = 0
KVP1 181754Z 21018KT 35/16 A2996 RMK A01 T03520163  RH  033%=      5-min Rain = 0
KVP1 181755Z 21015KT 35/16 A2996 RMK A01 T03510163  RH  033%=      5-min Rain = 0
KVP1 181756Z 21014KT 35/16 A2996 RMK A01 T03470164  RH  034%=      5-min Rain = 0
KVP1 181757Z 20016KT 35/17 A2996 RMK A01 T03460167  RH  035%=      5-min Rain = 0
KVP1 181758Z 20017KT 35/17 A2996 RMK A01 T03490166  RH  034%=      5-min Rain = 0
KVP1 181759Z 20016KT 35/17 A2995 RMK A01 T03520165  RH  033%=      5-min Rain = 0
KVP1 181800Z 19017KT 35/17 A2996 RMK A01 T03510165  RH  033%=      5-min Rain = 0
KVP1 181801Z 19016KT 35/17 A2995 RMK A01 T03490165  RH  034%=      5-min Rain = 0
KVP1 181802Z 20017G22KT 35/17 A2995 RMK A01 T03520166  RH  033%=      5-min Rain = 0
KVP1 181803Z 19016KT 36/17 A2995 RMK A01 T03550165  RH  033%=      5-min Rain = 0
KVP1 181804Z 19015KT 36/17 A2995 RMK A01 T03550165  RH  032%=      5-min Rain = 0
KVP1 181805Z 20016KT 35/17 A2995 RMK A01 T03540165  RH  033%=      5-min Rain = 0
KVP1 181806Z 20015KT 36/17 A2995 RMK A01 T03550165  RH  032%=      5-min Rain = 0
KVP1 181807Z 19013KT 35/17 A2995 RMK A01 T03540167  RH  033%=      5-min Rain = 0
KVP1 181808Z 20012KT 35/17 A2995 RMK A01 T03540169  RH  034%=      5-min Rain = 0
KVP1 181809Z 20013KT 36/17 A2995 RMK A01 T03550167  RH  033%=      5-min Rain = 0
KVP1 181810Z 20016KT 36/17 A2995 RMK A01 T03560167  RH  033%=      5-min Rain = 0
KVP1 181811Z 21015KT 36/17 A2995 RMK A01 T03590166  RH  032%=      5-min Rain = 0
KVP1 181812Z 19012KT 36/17 A2995 RMK A01 T03600166  RH  032%=      5-min Rain = 0
KVP1 181813Z 19014KT 36/17 A2995 RMK A01 T03620169  RH  032%=      5-min Rain = 0
KVP1 181814Z 20014KT 36/17 A2995 RMK A01 T03600165  RH  032%=      5-min Rain = 0
KVP1 181815Z 21012KT 35/16 A2995 RMK A01 T03540163  RH  032%=      5-min Rain = 0
KVP1 181816Z 20014KT 35/17 A2995 RMK A01 T03530165  RH  033%=      5-min Rain = 0
KVP1 181817Z 21016KT 36/16 A2995 RMK A01 T03570164  RH  032%=      5-min Rain = 0
KVP1 181818Z 19016KT 36/16 A2995 RMK A01 T03600161  RH  031%=      5-min Rain = 0
KVP1 181819Z 18014KT 36/16 A2995 RMK A01 T03600161  RH  031%=      5-min Rain = 0
KVP1 181820Z 19015G22KT 36/16 A2995 RMK A01 T03590163  RH  031%=      5-min Rain = 0
KVP1 181821Z 18017G22KT 36/17 A2995 RMK A01 T03600165  RH  032%=      5-min Rain = 0
KVP1 181822Z 20014G19KT 36/17 A2995 RMK A01 T03600166  RH  032%=      5-min Rain = 0
KVP1 181823Z 22014KT 36/16 A2995 RMK A01 T03600163  RH  031%=      5-min Rain = 0
KVP1 181824Z 22014KT 36/16 A2995 RMK A01 T03610163  RH  031%=      5-min Rain = 0
KVP1 181825Z 21014G20KT 36/16 A2995 RMK A01 T03610163  RH  031%=      5-min Rain = 0
KVP1 181826Z 18017KT 36/16 A2995 RMK A01 T03630161  RH  030%=      5-min Rain = 0
KVP1 181827Z 19017KT 36/16 A2995 RMK A01 T03610161  RH  031%=      5-min Rain = 0
KVP1 181828Z 19016KT 36/16 A2995 RMK A01 T03600162  RH  031%=      5-min Rain = 0
KVP1 181829Z 20015KT 36/17 A2995 RMK A01 T03600165  RH  032%=      5-min Rain = 0
KVP1 181830Z 20013KT 36/17 A2995 RMK A01 T03600166  RH  032%=      5-min Rain = 0
KVP1 181831Z 19010KT 36/17 A2995 RMK A01 T03560166  RH  032%=      5-min Rain = 0
KVP1 181832Z 19014KT 36/17 A2995 RMK A01 T03580167  RH  032%=      5-min Rain = 0
KVP1 181833Z 21015KT 36/17 A2995 RMK A01 T03620168  RH  032%=      5-min Rain = 0
KVP1 181834Z 21013KT 36/16 A2995 RMK A01 T03630162  RH  030%=      5-min Rain = 0
KVP1 181835Z 21013KT 36/16 A2995 RMK A01 T03590161  RH  031%=      5-min Rain = 0
KVP1 181836Z 19016G22KT 36/16 A2995 RMK A01 T03580163  RH  032%=      5-min Rain = 0
KVP1 181837Z 19019KT 36/16 A2995 RMK A01 T03610162  RH  031%=      5-min Rain = 0
KVP1 181838Z 21017KT 36/16 A2995 RMK A01 T03610161  RH  031%=      5-min Rain = 0
KVP1 181839Z 21016KT 36/16 A2995 RMK A01 T03590161  RH  031%=      5-min Rain = 0
KVP1 181840Z 21014KT 36/16 A2995 RMK A01 T03580163  RH  032%=      5-min Rain = 0
KVP1 181841Z 21013KT 36/17 A2995 RMK A01 T03560165  RH  032%=      5-min Rain = 0
KVP1 181842Z 20013KT 36/17 A2995 RMK A01 T03570168  RH  033%=      5-min Rain = 0
KVP1 181843Z 20013G19KT 36/17 A2995 RMK A01 T03610169  RH  032%=      5-min Rain = 0
KVP1 181844Z 19014G19KT 36/17 A2995 RMK A01 T03640170  RH  032%=      5-min Rain = 0
KVP1 181845Z 19017KT 37/16 A2994 RMK A01 T03660164  RH  030%=      5-min Rain = 0
KVP1 181846Z 20016KT 37/16 A2994 RMK A01 T03650161  RH  030%=      5-min Rain = 0
KVP1 181847Z 19013KT 37/16 A2995 RMK A01 T03660161  RH  030%=      5-min Rain = 0
KVP1 181848Z 21013KT 37/16 A2994 RMK A01 T03670161  RH  030%=      5-min Rain = 0
KVP1 181849Z 19009KT 36/16 A2994 RMK A01 T03640164  RH  031%=      5-min Rain = 0
KVP1 181850Z 20013KT 37/17 A2994 RMK A01 T03660165  RH  030%=      5-min Rain = 0
KVP1 181851Z 20015KT 37/16 A2994 RMK A01 T03650162  RH  030%=      5-min Rain = 0
KVP1 181852Z 19015KT 36/16 A2994 RMK A01 T03630162  RH  031%=      5-min Rain = 0
KVP1 181853Z 20015KT 36/16 A2994 RMK A01 T03610161  RH  031%=      5-min Rain = 0
KVP1 181854Z 19017KT 36/16 A2994 RMK A01 T03590163  RH  031%=      5-min Rain = 0
KVP1 181855Z 20013KT 36/16 A2994 RMK A01 T03600161  RH  031%=      5-min Rain = 0
KVP1 181856Z 21013G18KT 36/16 A2994 RMK A01 T03620163  RH  031%=      5-min Rain = 0
KVP1 181857Z 20013KT 36/16 A2994 RMK A01 T03630163  RH  031%=      5-min Rain = 0
KVP1 181858Z 20014KT 37/17 A2994 RMK A01 T03680165  RH  030%=      5-min Rain = 0
KVP1 181859Z 21016KT 37/16 A2994 RMK A01 T03690163  RH  030%=      5-min Rain = 0
KVP1 181900Z 19015KT 37/16 A2994 RMK A01 T03680164  RH  030%=      5-min Rain = 0
KVP1 181901Z 17014KT 37/16 A2994 RMK A01 T03670163  RH  030%=      5-min Rain = 0
KVP1 181902Z 18015G25KT 37/16 A2994 RMK A01 T03670163  RH  030%=      5-min Rain = 0
KVP1 181903Z 20017G22KT 37/16 A2994 RMK A01 T03670162  RH  030%=      5-min Rain = 0
KVP1 181904Z 21015KT 37/16 A2994 RMK A01 T03670159  RH  029%=      5-min Rain = 0
KVP1 181905Z 20012KT 36/16 A2994 RMK A01 T03640158  RH  029%=      5-min Rain = 0
KVP1 181906Z 19013KT 36/16 A2994 RMK A01 T03620157  RH  030%=      5-min Rain = 0
KVP1 181907Z 20012KT 36/16 A2994 RMK A01 T03610158  RH  030%=      5-min Rain = 0
KVP1 181908Z 18012KT 36/16 A2994 RMK A01 T03610160  RH  030%=      5-min Rain = 0
KVP1 181909Z 19011KT 36/16 A2994 RMK A01 T03630161  RH  030%=      5-min Rain = 0
KVP1 181910Z 20015KT 37/16 A2994 RMK A01 T03670164  RH  030%=      5-min Rain = 0
KVP1 181911Z 19018KT 37/16 A2994 RMK A01 T03690161  RH  029%=      5-min Rain = 0
KVP1 181912Z 18017KT 36/16 A2994 RMK A01 T03640159  RH  030%=      5-min Rain = 0
KVP1 181913Z 18016KT 36/16 A2994 RMK A01 T03640159  RH  030%=      5-min Rain = 0
KVP1 181914Z 18017KT 37/16 A2994 RMK A01 T03660160  RH  030%=      5-min Rain = 0
KVP1 181915Z 18014KT 36/16 A2994 RMK A01 T03640158  RH  029%=      5-min Rain = 0
KVP1 181916Z 17014KT 36/16 A2993 RMK A01 T03640159  RH  030%=      5-min Rain = 0
KVP1 181917Z 17015KT 37/16 A2993 RMK A01 T03660159  RH  029%=      5-min Rain = 0
KVP1 181918Z 17014KT 37/16 A2993 RMK A01 T03670159  RH  029%=      5-min Rain = 0
KVP1 181919Z 17015KT 37/16 A2993 RMK A01 T03710160  RH  029%=      5-min Rain = 0
KVP1 181920Z 19014KT 37/16 A2993 RMK A01 T03710161  RH  029%=      5-min Rain = 0
KVP1 181921Z 18015KT 37/16 A2993 RMK A01 T03730162  RH  029%=      5-min Rain = 0
KVP1 181922Z 19019G24KT 37/16 A2993 RMK A01 T03740160  RH  028%=      5-min Rain = 0
KVP1 181923Z 18019KT 37/16 A2993 RMK A01 T03700158  RH  029%=      5-min Rain = 0
KVP1 181924Z 18016KT 37/16 A2993 RMK A01 T03660161  RH  030%=      5-min Rain = 0
KVP1 181925Z 18011KT 37/16 A2993 RMK A01 T03660160  RH  030%=      5-min Rain = 0
KVP1 181926Z 20015KT 37/16 A2993 RMK A01 T03670162  RH  030%=      5-min Rain = 0
KVP1 181927Z 19016KT 37/16 A2993 RMK A01 T03710161  RH  029%=      5-min Rain = 0
KVP1 181928Z 19015KT 37/16 A2993 RMK A01 T03710160  RH  029%=      5-min Rain = 0
KVP1 181929Z 19014KT 37/16 A2993 RMK A01 T03710160  RH  029%=      5-min Rain = 0
KVP1 181930Z 19015KT 38/16 A2993 RMK A01 T03760158  RH  028%=      5-min Rain = 0
KVP1 181931Z 20011KT 38/16 A2993 RMK A01 T03760158  RH  028%=      5-min Rain = 0
KVP1 181932Z 19015KT 38/16 A2992 RMK A01 T03750159  RH  028%=      5-min Rain = 0
KVP1 181933Z 19016KT 38/16 A2992 RMK A01 T03750158  RH  028%=      5-min Rain = 0
KVP1 181934Z 19021KT 38/16 A2993 RMK A01 T03760159  RH  028%=      5-min Rain = 0
KVP1 181935Z 19016KT 38/16 A2993 RMK A01 T03750158  RH  028%=      5-min Rain = 0
KVP1 181936Z 19014KT 37/16 A2993 RMK A01 T03740159  RH  028%=      5-min Rain = 0
KVP1 181937Z 20012G17KT 37/16 A2993 RMK A01 T03740159  RH  028%=      5-min Rain = 0
KVP1 181938Z 19015G20KT 38/16 A2992 RMK A01 T03750157  RH  028%=      5-min Rain = 0
KVP1 181939Z 18015KT 37/16 A2992 RMK A01 T03740156  RH  028%=      5-min Rain = 0
KVP1 181940Z 19014KT 37/16 A2992 RMK A01 T03740155  RH  027%=      5-min Rain = 0
KVP1 181941Z 21012KT 38/15 A2992 RMK A01 T03780153  RH  027%=      5-min Rain = 0
KVP1 181942Z 20016KT 38/15 A2992 RMK A01 T03820154  RH  026%=      5-min Rain = 0
KVP1 181943Z 20014KT 38/15 A2992 RMK A01 T03770153  RH  027%=      5-min Rain = 0
KVP1 181944Z 19013KT 37/15 A2992 RMK A01 T03730152  RH  027%=      5-min Rain = 0
KVP1 181945Z 19014G19KT 37/16 A2992 RMK A01 T03710160  RH  029%=      5-min Rain = 0
KVP1 181946Z 19017G24KT 37/16 A2992 RMK A01 T03720161  RH  029%=      5-min Rain = 0
KVP1 181947Z 19017KT 38/16 A2992 RMK A01 T03750158  RH  028%=      5-min Rain = 0
KVP1 181948Z 20014KT 37/16 A2992 RMK A01 T03740160  RH  028%=      5-min Rain = 0
KVP1 181949Z 20012KT 37/16 A2992 RMK A01 T03720157  RH  028%=      5-min Rain = 0
KVP1 181950Z 20013KT 37/16 A2992 RMK A01 T03710158  RH  028%=      5-min Rain = 0
KVP1 181951Z 20017KT 37/16 A2992 RMK A01 T03730157  RH  028%=      5-min Rain = 0
KVP1 181952Z 19018G24KT 38/15 A2992 RMK A01 T03750151  RH  027%=      5-min Rain = 0
KVP1 181953Z 19020KT 38/15 A2992 RMK A01 T03750152  RH  027%=      5-min Rain = 0
KVP1 181954Z 19017G22KT 37/16 A2992 RMK A01 T03740156  RH  028%=      5-min Rain = 0
KVP1 181955Z 19016KT 37/16 A2992 RMK A01 T03710155  RH  028%=      5-min Rain = 0
KVP1 181956Z 19012KT 37/16 A2992 RMK A01 T03680156  RH  028%=      5-min Rain = 0
KVP1 181957Z 19014KT 37/16 A2992 RMK A01 T03700158  RH  029%=      5-min Rain = 0
KVP1 181958Z 19020G27KT 37/16 A2992 RMK A01 T03730155  RH  028%=      5-min Rain = 0
KVP1 181959Z 18021KT 37/15 A2992 RMK A01 T03730150  RH  027%=      5-min Rain = 0
KVP1 182000Z 19017KT 37/15 A2992 RMK A01 T03730149  RH  027%=      5-min Rain = 0
KVP1 182001Z 18014KT 37/15 A2992 RMK A01 T03730153  RH  027%=      5-min Rain = 0
KVP1 182002Z 18016KT 37/15 A2992 RMK A01 T03730153  RH  027%=      5-min Rain = 0
KVP1 182003Z 20020G27KT 37/16 A2992 RMK A01 T03740156  RH  028%=      5-min Rain = 0
KVP1 182004Z 18017KT 38/16 A2992 RMK A01 T03760155  RH  027%=      5-min Rain = 0
KVP1 182005Z 19017KT 38/15 A2992 RMK A01 T03760152  RH  027%=      5-min Rain = 0
KVP1 182006Z 19017G22KT 37/15 A2992 RMK A01 T03740151  RH  027%=      5-min Rain = 0
KVP1 182007Z 18020KT 38/15 A2992 RMK A01 T03760152  RH  027%=      5-min Rain = 0
KVP1 182008Z 19016G21KT 38/15 A2992 RMK A01 T03770152  RH  027%=      5-min Rain = 0
KVP1 182009Z 21018KT 38/15 A2992 RMK A01 T03790146  RH  025%=      5-min Rain = 0
KVP1 182010Z 20015KT 38/14 A2992 RMK A01 T03770141  RH  025%=      5-min Rain = 0
KVP1 182011Z 20013KT 38/15 A2992 RMK A01 T03750150  RH  026%=      5-min Rain = 0
KVP1 182012Z 20014KT 37/15 A2992 RMK A01 T03730151  RH  027%=      5-min Rain = 0
KVP1 182013Z 19015G20KT 38/15 A2992 RMK A01 T03760152  RH  027%=      5-min Rain = 0
KVP1 182014Z 19019KT 38/15 A2992 RMK A01 T03780149  RH  026%=      5-min Rain = 0
KVP1 182015Z 18018KT 38/15 A2992 RMK A01 T03810149  RH  025%=      5-min Rain = 0
KVP1 182016Z 17021KT 38/15 A2991 RMK A01 T03810148  RH  025%=      5-min Rain = 0
KVP1 182017Z 19015KT 38/15 A2992 RMK A01 T03790147  RH  025%=      5-min Rain = 0
KVP1 182018Z 18014KT 38/15 A2992 RMK A01 T03790148  RH  026%=      5-min Rain = 0
KVP1 182019Z 18015KT 38/15 A2991 RMK A01 T03790148  RH  025%=      5-min Rain = 0
KVP1 182020Z 17013G18KT 38/15 A2991 RMK A01 T03760151  RH  026%=      5-min Rain = 0
KVP1 182021Z 17019KT 38/15 A2991 RMK A01 T03790154  RH  026%=      5-min Rain = 0
KVP1 182022Z 18018G23KT 38/15 A2991 RMK A01 T03790154  RH  027%=      5-min Rain = 0
KVP1 182023Z 19019KT 38/15 A2991 RMK A01 T03780150  RH  026%=      5-min Rain = 0
KVP1 182024Z 18017KT 38/15 A2991 RMK A01 T03770145  RH  025%=      5-min Rain = 0
KVP1 182025Z 18016KT 38/15 A2991 RMK A01 T03760150  RH  026%=      5-min Rain = 0
KVP1 182026Z 17016KT 38/15 A2991 RMK A01 T03760154  RH  027%=      5-min Rain = 0
KVP1 182027Z 18015KT 38/15 A2991 RMK A01 T03770154  RH  027%=      5-min Rain = 0
KVP1 182028Z 18015G21KT 38/15 A2991 RMK A01 T03800154  RH  026%=      5-min Rain = 0
KVP1 182029Z 18022G27KT 38/15 A2991 RMK A01 T03830153  RH  026%=      5-min Rain = 0
KVP1 182030Z 18021KT 38/15 A2991 RMK A01 T03820150  RH  026%=      5-min Rain = 0
KVP1 182031Z 19016G21KT 38/15 A2991 RMK A01 T03780149  RH  026%=      5-min Rain = 0
KVP1 182032Z 20014KT 38/15 A2991 RMK A01 T03760151  RH  026%=      5-min Rain = 0
KVP1 182033Z 19013KT 38/15 A2991 RMK A01 T03830154  RH  026%=      5-min Rain = 0
KVP1 182034Z 19014G19KT 39/15 A2991 RMK A01 T03850152  RH  025%=      5-min Rain = 0
KVP1 182035Z 19018G24KT 38/15 A2991 RMK A01 T03830149  RH  025%=      5-min Rain = 0
KVP1 182036Z 17019KT 38/15 A2991 RMK A01 T03810150  RH  026%=      5-min Rain = 0
KVP1 182037Z 17020KT 38/15 A2991 RMK A01 T03790150  RH  026%=      5-min Rain = 0
KVP1 182038Z 17016KT 38/15 A2991 RMK A01 T03770148  RH  026%=      5-min Rain = 0
KVP1 182039Z 18014KT 37/15 A2991 RMK A01 T03740151  RH  027%=      5-min Rain = 0
KVP1 182040Z 19016KT 38/15 A2991 RMK A01 T03750151  RH  027%=      5-min Rain = 0
KVP1 182041Z 19019G26KT 38/15 A2991 RMK A01 T03770150  RH  026%=      5-min Rain = 0
KVP1 182042Z 19014KT 38/16 A2991 RMK A01 T03820155  RH  026%=      5-min Rain = 0
KVP1 182043Z 18019KT 39/15 A2991 RMK A01 T03870152  RH  025%=      5-min Rain = 0
KVP1 182044Z 19018KT 38/15 A2991 RMK A01 T03830147  RH  025%=      5-min Rain = 0
KVP1 182045Z 18015KT 38/15 A2991 RMK A01 T03770145  RH  025%=      5-min Rain = 0
KVP1 182046Z 18015KT 38/14 A2991 RMK A01 T03750144  RH  025%=      5-min Rain = 0
KVP1 182047Z 19012KT 38/15 A2991 RMK A01 T03750146  RH  026%=      5-min Rain = 0
KVP1 182048Z 19012KT 38/15 A2991 RMK A01 T03780147  RH  026%=      5-min Rain = 0
KVP1 182049Z 17015KT 38/15 A2991 RMK A01 T03810145  RH  025%=      5-min Rain = 0
KVP1 182050Z 18020KT 38/14 A2991 RMK A01 T03820144  RH  024%=      5-min Rain = 0
KVP1 182051Z 17019KT 38/14 A2991 RMK A01 T03800142  RH  024%=      5-min Rain = 0
KVP1 182052Z 17015KT 38/14 A2991 RMK A01 T03790142  RH  024%=      5-min Rain = 0
KVP1 182053Z 18014KT 38/14 A2991 RMK A01 T03780142  RH  025%=      5-min Rain = 0
KVP1 182054Z 17014KT 38/14 A2991 RMK A01 T03780142  RH  025%=      5-min Rain = 0
KVP1 182055Z 19014G19KT 38/15 A2991 RMK A01 T03780145  RH  025%=      5-min Rain = 0
KVP1 182056Z 19016KT 38/15 A299 RMK A01 T03790147  RH  025%=      5-min Rain = 0
KVP1 182057Z 18020G25KT 38/15 A299 RMK A01 T03830150  RH  025%=      5-min Rain = 0
KVP1 182058Z 18020KT 38/15 A2991 RMK A01 T03830147  RH  025%=      5-min Rain = 0
KVP1 182059Z 17019KT 38/15 A2991 RMK A01 T03790148  RH  025%=      5-min Rain = 0
KVP1 182100Z 18017G22KT 38/15 A299 RMK A01 T03790147  RH  025%=      5-min Rain = 0
KVP1 182101Z 18012KT 38/15 A2991 RMK A01 T03790148  RH  026%=      5-min Rain = 0
KVP1 182102Z 18013KT 38/15 A2991 RMK A01 T03810146  RH  025%=      5-min Rain = 0
KVP1 182103Z 20011KT 38/15 A299 RMK A01 T03810146  RH  025%=      5-min Rain = 0
KVP1 182104Z 18013KT 38/15 A299 RMK A01 T03830149  RH  025%=      5-min Rain = 0
KVP1 182105Z 17019KT 38/15 A299 RMK A01 T03840146  RH  025%=      5-min Rain = 0
KVP1 182106Z 17016KT 38/15 A299 RMK A01 T03820145  RH  025%=      5-min Rain = 0
KVP1 182107Z 16016G23KT 38/14 A299 RMK A01 T03810143  RH  024%=      5-min Rain = 0
KVP1 182108Z 17020KT 38/14 A299 RMK A01 T03820144  RH  024%=      5-min Rain = 0
KVP1 182109Z 17017KT 38/14 A299 RMK A01 T03820142  RH  024%=      5-min Rain = 0
KVP1 182110Z 19019KT 38/14 A299 RMK A01 T03810144  RH  025%=      5-min Rain = 0
KVP1 182111Z 18014G19KT 38/14 A299 RMK A01 T03810143  RH  024%=      5-min Rain = 0
KVP1 182112Z 18015KT 38/14 A299 RMK A01 T03780143  RH  025%=      5-min Rain = 0
KVP1 182113Z 17016KT 38/14 A299 RMK A01 T03790140  RH  024%=      5-min Rain = 0
KVP1 182114Z 18022G27KT 38/14 A299 RMK A01 T03810140  RH  024%=      5-min Rain = 0
KVP1 182115Z 18022KT 38/14 A299 RMK A01 T03800140  RH  024%=      5-min Rain = 0
KVP1 182116Z 18018G23KT 38/14 A299 RMK A01 T03790141  RH  024%=      5-min Rain = 0
KVP1 182117Z 19016KT 38/14 A299 RMK A01 T03800143  RH  025%=      5-min Rain = 0
KVP1 182118Z 19017KT 38/14 A299 RMK A01 T03820142  RH  024%=      5-min Rain = 0
KVP1 182119Z 19014KT 38/14 A299 RMK A01 T03810143  RH  024%=      5-min Rain = 0
KVP1 182120Z 17016KT 38/14 A299 RMK A01 T03810142  RH  024%=      5-min Rain = 0
KVP1 182121Z 17014KT 38/14 A299 RMK A01 T03830144  RH  024%=      5-min Rain = 0
KVP1 182122Z 18017KT 39/14 A299 RMK A01 T03850143  RH  024%=      5-min Rain = 0
KVP1 182123Z 17018KT 39/14 A299 RMK A01 T03860141  RH  023%=      5-min Rain = 0
KVP1 182124Z 17019KT 38/14 A299 RMK A01 T03820139  RH  024%=      5-min Rain = 0
KVP1 182125Z 17016G21KT 38/14 A299 RMK A01 T03820140  RH  024%=      5-min Rain = 0
KVP1 182126Z 19018G24KT 38/14 A299 RMK A01 T03840144  RH  024%=      5-min Rain = 0
KVP1 182127Z 19019KT 39/15 A299 RMK A01 T03850146  RH  024%=      5-min Rain = 0
KVP1 182128Z 18015KT 38/14 A299 RMK A01 T03820144  RH  024%=      5-min Rain = 0
KVP1 182129Z 19013KT 38/15 A299 RMK A01 T03790145  RH  025%=      5-min Rain = 0
KVP1 182130Z 19016KT 38/14 A299 RMK A01 T03810144  RH  025%=      5-min Rain = 0
KVP1 182131Z 18015KT 38/14 A299 RMK A01 T03830143  RH  024%=      5-min Rain = 0
KVP1 182132Z 18014G19KT 38/14 A299 RMK A01 T03810142  RH  024%=      5-min Rain = 0
KVP1 182133Z 18018KT 38/14 A299 RMK A01 T03810142  RH  024%=      5-min Rain = 0
KVP1 182134Z 18015KT 38/14 A299 RMK A01 T03830140  RH  024%=      5-min Rain = 0
KVP1 182135Z 17017KT 38/14 A299 RMK A01 T03830142  RH  024%=      5-min Rain = 0
KVP1 182136Z 18018G26KT 38/14 A299 RMK A01 T03820143  RH  024%=      5-min Rain = 0
KVP1 182137Z 19016G21KT 38/14 A2989 RMK A01 T03820144  RH  024%=      5-min Rain = 0
KVP1 182138Z 18017G22KT 38/14 A2989 RMK A01 T03830143  RH  024%=      5-min Rain = 0
KVP1 182139Z 19016G21KT 38/14 A2989 RMK A01 T03800143  RH  024%=      5-min Rain = 0
KVP1 182140Z 19017KT 38/14 A2989 RMK A01 T03790143  RH  025%=      5-min Rain = 0
KVP1 182141Z 18019KT 38/14 A2989 RMK A01 T03800143  RH  025%=      5-min Rain = 0
KVP1 182142Z 18014KT 38/14 A2989 RMK A01 T03820142  RH  024%=      5-min Rain = 0
KVP1 182143Z 17018KT 38/14 A2989 RMK A01 T03830141  RH  024%=      5-min Rain = 0
KVP1 182144Z 18016KT 38/14 A2989 RMK A01 T03810138  RH  024%=      5-min Rain = 0
KVP1 182145Z 17012KT 38/14 A2989 RMK A01 T03800138  RH  024%=      5-min Rain = 0
KVP1 182146Z 17012G19KT 38/14 A2989 RMK A01 T03800139  RH  024%=      5-min Rain = 0
KVP1 182147Z 18017KT 38/14 A2989 RMK A01 T03800138  RH  024%=      5-min Rain = 0
KVP1 182148Z 18013KT 38/14 A2989 RMK A01 T03800138  RH  024%=      5-min Rain = 0
KVP1 182149Z 17012KT 38/14 A2989 RMK A01 T03810141  RH  024%=      5-min Rain = 0
KVP1 182150Z 21015G21KT 39/14 A2989 RMK A01 T03850143  RH  024%=      5-min Rain = 0
KVP1 182151Z 20017KT 39/14 A2989 RMK A01 T03860141  RH  023%=      5-min Rain = 0
KVP1 182152Z 19015KT 38/14 A2989 RMK A01 T03840142  RH  024%=      5-min Rain = 0
KVP1 182153Z 19017KT 38/14 A2989 RMK A01 T03830142  RH  024%=      5-min Rain = 0
KVP1 182154Z 18019KT 38/14 A2989 RMK A01 T03830142  RH  024%=      5-min Rain = 0
KVP1 182155Z 19014KT 38/14 A2989 RMK A01 T03810140  RH  024%=      5-min Rain = 0
KVP1 182156Z 18017G23KT 38/14 A2989 RMK A01 T03820142  RH  024%=      5-min Rain = 0
KVP1 182157Z 16017KT 38/14 A2989 RMK A01 T03840138  RH  023%=      5-min Rain = 0
KVP1 182158Z 17018KT 38/14 A2989 RMK A01 T03820139  RH  024%=      5-min Rain = 0
KVP1 182159Z 17016G24KT 38/14 A2989 RMK A01 T03800138  RH  024%=      5-min Rain = 0
KVP1 182200Z 17019KT 38/14 A2989 RMK A01 T03800139  RH  024%=      5-min Rain = 0
KVP1 182201Z 18017KT 38/14 A2989 RMK A01 T03820139  RH  024%=      5-min Rain = 0
KVP1 182202Z 18015KT 38/14 A2989 RMK A01 T03820140  RH  024%=      5-min Rain = 0
KVP1 182203Z 18020KT 38/14 A2989 RMK A01 T03830139  RH  023%=      5-min Rain = 0
KVP1 182204Z 18017KT 38/14 A2989 RMK A01 T03840138  RH  023%=      5-min Rain = 0
KVP1 182205Z 18016KT 38/14 A2989 RMK A01 T03840139  RH  023%=      5-min Rain = 0
KVP1 182206Z 19016KT 38/14 A2989 RMK A01 T03840141  RH  024%=      5-min Rain = 0
KVP1 182207Z 21016KT 39/14 A2989 RMK A01 T03850141  RH  024%=      5-min Rain = 0
KVP1 182208Z 19015KT 38/14 A2989 RMK A01 T03840142  RH  024%=      5-min Rain = 0
KVP1 182209Z 19016G21KT 38/14 A2989 RMK A01 T03830143  RH  024%=      5-min Rain = 0
KVP1 182210Z 19018KT 38/14 A2989 RMK A01 T03830143  RH  024%=      5-min Rain = 0
KVP1 182211Z 18018KT 38/14 A2989 RMK A01 T03830142  RH  024%=      5-min Rain = 0
KVP1 182212Z 18015G21KT 38/14 A2989 RMK A01 T03820140  RH  024%=      5-min Rain = 0
KVP1 182213Z 19017KT 38/14 A2989 RMK A01 T03800141  RH  024%=      5-min Rain = 0
KVP1 182214Z 19015KT 38/14 A2989 RMK A01 T03790142  RH  024%=      5-min Rain = 0
KVP1 182215Z 18014KT 38/14 A2988 RMK A01 T03800141  RH  024%=      5-min Rain = 0
KVP1 182216Z 18013KT 38/14 A2988 RMK A01 T03810142  RH  024%=      5-min Rain = 0
KVP1 182217Z 17013KT 38/14 A2988 RMK A01 T03830142  RH  024%=      5-min Rain = 0
KVP1 182218Z 18019G25KT 38/14 A2988 RMK A01 T03840142  RH  024%=      5-min Rain = 0
KVP1 182219Z 18019G24KT 38/14 A2988 RMK A01 T03820142  RH  024%=      5-min Rain = 0
KVP1 182220Z 19019KT 38/14 A2988 RMK A01 T03810143  RH  024%=      5-min Rain = 0
KVP1 182221Z 18016G21KT 38/14 A2988 RMK A01 T03800142  RH  024%=      5-min Rain = 0
KVP1 182222Z 19011G17KT 38/14 A2988 RMK A01 T03770141  RH  025%=      5-min Rain = 0
KVP1 182223Z 18014KT 38/14 A2988 RMK A01 T03790144  RH  025%=      5-min Rain = 0
KVP1 182224Z 18019G24KT 38/14 A2988 RMK A01 T03800140  RH  024%=      5-min Rain = 0
KVP1 182225Z 18016KT 38/14 A2988 RMK A01 T03790141  RH  024%=      5-min Rain = 0
KVP1 182226Z 19015G21KT 38/14 A2988 RMK A01 T03820144  RH  025%=      5-min Rain = 0
KVP1 182227Z 18018KT 38/14 A2988 RMK A01 T03840144  RH  024%=      5-min Rain = 0
KVP1 182228Z 18016G21KT 38/14 A2988 RMK A01 T03820143  RH  024%=      5-min Rain = 0
KVP1 182229Z 19014G19KT 38/14 A2988 RMK A01 T03800144  RH  025%=      5-min Rain = 0
KVP1 182230Z 19011KT 38/15 A2988 RMK A01 T03820145  RH  025%=      5-min Rain = 0
KVP1 182231Z 20015KT 38/15 A2988 RMK A01 T03830146  RH  025%=      5-min Rain = 0
KVP1 182232Z 17012KT 39/15 A2988 RMK A01 T03860147  RH  024%=      5-min Rain = 0
KVP1 182233Z 19015G20KT 39/15 A2988 RMK A01 T03880146  RH  024%=      5-min Rain = 0
KVP1 182234Z 19018KT 39/14 A2988 RMK A01 T03870144  RH  024%=      5-min Rain = 0
KVP1 182235Z 19013KT 38/14 A2988 RMK A01 T03830142  RH  024%=      5-min Rain = 0
KVP1 182236Z 19012KT 38/15 A2988 RMK A01 T03830145  RH  025%=      5-min Rain = 0
KVP1 182237Z 18017KT 39/14 A2988 RMK A01 T03850144  RH  024%=      5-min Rain = 0
KVP1 182238Z 18018G23KT 38/14 A2987 RMK A01 T03840142  RH  024%=      5-min Rain = 0
KVP1 182239Z 18019G24KT 38/14 A2987 RMK A01 T03830143  RH  024%=      5-min Rain = 0
KVP1 182240Z 17020KT 38/14 A2987 RMK A01 T03830143  RH  024%=      5-min Rain = 0
KVP1 182241Z 17016KT 38/14 A2987 RMK A01 T03810142  RH  024%=      5-min Rain = 0
KVP1 182242Z 17016KT 38/15 A2987 RMK A01 T03800145  RH  025%=      5-min Rain = 0
KVP1 182243Z 18017KT 38/14 A2987 RMK A01 T03830143  RH  024%=      5-min Rain = 0
KVP1 182244Z 17011KT 38/14 A2987 RMK A01 T03820142  RH  024%=      5-min Rain = 0
KVP1 182245Z 17013KT 38/14 A2987 RMK A01 T03800143  RH  025%=      5-min Rain = 0
KVP1 182246Z 17013KT 38/14 A2987 RMK A01 T03800143  RH  025%=      5-min Rain = 0
KVP1 182247Z 17020G26KT 38/14 A2987 RMK A01 T03810143  RH  024%=      5-min Rain = 0
KVP1 182248Z 19022KT 38/14 A2987 RMK A01 T03810142  RH  024%=      5-min Rain = 0
KVP1 182249Z 19019KT 38/14 A2987 RMK A01 T03800143  RH  024%=      5-min Rain = 0
KVP1 182250Z 19019G24KT 38/14 A2987 RMK A01 T03780141  RH  024%=      5-min Rain = 0
KVP1 182251Z 20018KT 38/14 A2987 RMK A01 T03770141  RH  025%=      5-min Rain = 0
KVP1 182252Z 19016KT 38/14 A2987 RMK A01 T03770142  RH  025%=      5-min Rain = 0
KVP1 182253Z 18016KT 38/14 A2987 RMK A01 T03780142  RH  025%=      5-min Rain = 0
KVP1 182254Z 17016KT 38/14 A2987 RMK A01 T03790140  RH  024%=      5-min Rain = 0
KVP1 182255Z 18019KT 38/14 A2987 RMK A01 T03790142  RH  025%=      5-min Rain = 0
KVP1 182256Z 19018KT 38/14 A2987 RMK A01 T03790140  RH  024%=      5-min Rain = 0
KVP1 182257Z 19014KT 38/14 A2987 RMK A01 T03780140  RH  024%=      5-min Rain = 0
KVP1 182258Z 19014KT 38/14 A2987 RMK A01 T03780142  RH  025%=      5-min Rain = 0
KVP1 182259Z 18014G21KT 38/14 A2987 RMK A01 T03800143  RH  025%=      5-min Rain = 0
KVP1 182300Z 18020KT 38/14 A2987 RMK A01 T03820139  RH  024%=      5-min Rain = 0
KVP1 182301Z 19015KT 38/14 A2987 RMK A01 T03780138  RH  024%=      5-min Rain = 0
KVP1 182302Z 19015KT 38/14 A2987 RMK A01 T03780140  RH  024%=      5-min Rain = 0
KVP1 182303Z 19020G25KT 38/14 A2987 RMK A01 T03790141  RH  024%=      5-min Rain = 0
KVP1 182304Z 19020KT 38/14 A2987 RMK A01 T03800140  RH  024%=      5-min Rain = 0
KVP1 182305Z 18019KT 38/14 A2987 RMK A01 T03800138  RH  024%=      5-min Rain = 0
KVP1 182306Z 18019G24KT 38/14 A2987 RMK A01 T03790140  RH  024%=      5-min Rain = 0
KVP1 182307Z 18022KT 38/14 A2987 RMK A01 T03790140  RH  024%=      5-min Rain = 0
KVP1 182308Z 17020G25KT 38/14 A2987 RMK A01 T03780139  RH  024%=      5-min Rain = 0
KVP1 182309Z 18020G27KT 38/14 A2987 RMK A01 T03770141  RH  025%=      5-min Rain = 0
KVP1 182310Z 19017G22KT 38/14 A2987 RMK A01 T03770140  RH  024%=      5-min Rain = 0
KVP1 182311Z 18016KT 38/14 A2986 RMK A01 T03770140  RH  025%=      5-min Rain = 0
KVP1 182312Z 18017KT 38/14 A2986 RMK A01 T03780142  RH  025%=      5-min Rain = 0
KVP1 182313Z 17017KT 38/14 A2986 RMK A01 T03790139  RH  024%=      5-min Rain = 0
KVP1 182314Z 17017G22KT 38/14 A2986 RMK A01 T03770139  RH  024%=      5-min Rain = 0
KVP1 182315Z 16017KT 38/14 A2986 RMK A01 T03750140  RH  025%=      5-min Rain = 0
KVP1 182316Z 17015KT 38/14 A2986 RMK A01 T03750140  RH  025%=      5-min Rain = 0
KVP1 182317Z 17017G22KT 37/14 A2986 RMK A01 T03740139  RH  025%=      5-min Rain = 0
KVP1 182318Z 18020KT 38/14 A2986 RMK A01 T03750141  RH  025%=      5-min Rain = 0
KVP1 182319Z 18016KT 38/14 A2986 RMK A01 T03760141  RH  025%=      5-min Rain = 0
KVP1 182320Z 19016KT 38/14 A2986 RMK A01 T03770140  RH  025%=      5-min Rain = 0
KVP1 182321Z 18020KT 38/14 A2986 RMK A01 T03760141  RH  025%=      5-min Rain = 0
KVP1 182322Z 17017KT 38/14 A2986 RMK A01 T03760140  RH  025%=      5-min Rain = 0
KVP1 182323Z 18018KT 38/14 A2986 RMK A01 T03760141  RH  025%=      5-min Rain = 0
KVP1 182324Z 18016KT 38/14 A2986 RMK A01 T03750140  RH  025%=      5-min Rain = 0
KVP1 182325Z 18018KT 38/14 A2986 RMK A01 T03750140  RH  025%=      5-min Rain = 0
KVP1 182326Z 19020KT 38/14 A2986 RMK A01 T03750140  RH  025%=      5-min Rain = 0
KVP1 182327Z 19017KT 38/14 A2986 RMK A01 T03750139  RH  025%=      5-min Rain = 0
KVP1 182328Z 18018KT 38/14 A2986 RMK A01 T03750139  RH  025%=      5-min Rain = 0
KVP1 182329Z 18015KT 38/14 A2986 RMK A01 T03750139  RH  025%=      5-min Rain = 0
KVP1 182330Z 18019KT 38/14 A2986 RMK A01 T03750139  RH  025%=      5-min Rain = 0
KVP1 182331Z 18018G23KT 38/14 A2986 RMK A01 T03750138  RH  025%=      5-min Rain = 0
KVP1 182332Z 16016G21KT 37/14 A2986 RMK A01 T03740139  RH  025%=      5-min Rain = 0
KVP1 182333Z 18014KT 37/14 A2986 RMK A01 T03740141  RH  025%=      5-min Rain = 0
KVP1 182334Z 18017KT 38/14 A2986 RMK A01 T03750141  RH  025%=      5-min Rain = 0
KVP1 182335Z 18014KT 38/14 A2986 RMK A01 T03760142  RH  025%=      5-min Rain = 0
KVP1 182336Z 18019G25KT 38/14 A2986 RMK A01 T03780141  RH  025%=      5-min Rain = 0
KVP1 182337Z 18021KT 38/14 A2986 RMK A01 T03770139  RH  024%=      5-min Rain = 0
KVP1 182338Z 17018KT 37/14 A2986 RMK A01 T03740140  RH  025%=      5-min Rain = 0
KVP1 182339Z 18015KT 37/14 A2986 RMK A01 T03730140  RH  025%=      5-min Rain = 0
KVP1 182340Z 18015KT 37/14 A2986 RMK A01 T03740140  RH  025%=      5-min Rain = 0
KVP1 182341Z 19012KT 38/14 A2986 RMK A01 T03750141  RH  025%=      5-min Rain = 0
KVP1 182342Z 19015KT 38/14 A2986 RMK A01 T03760143  RH  025%=      5-min Rain = 0
KVP1 182343Z 19019G24KT 38/14 A2986 RMK A01 T03760142  RH  025%=      5-min Rain = 0
KVP1 182344Z 19018KT 38/14 A2986 RMK A01 T03750142  RH  025%=      5-min Rain = 0
KVP1 182345Z 19018KT 37/14 A2986 RMK A01 T03740143  RH  025%=      5-min Rain = 0
KVP1 182346Z 19015KT 37/14 A2986 RMK A01 T03740141  RH  025%=      5-min Rain = 0
KVP1 182347Z 18013KT 37/14 A2986 RMK A01 T03730142  RH  025%=      5-min Rain = 0
KVP1 182348Z 19015KT 37/14 A2986 RMK A01 T03730141  RH  025%=      5-min Rain = 0
KVP1 182349Z 18013G18KT 37/14 A2986 RMK A01 T03730143  RH  025%=      5-min Rain = 0
KVP1 182350Z 19017G22KT 37/14 A2986 RMK A01 T03740143  RH  025%=      5-min Rain = 0
KVP1 182351Z 19016KT 37/14 A2986 RMK A01 T03740142  RH  025%=      5-min Rain = 0
KVP1 182352Z 18013KT 37/14 A2986 RMK A01 T03730141  RH  025%=      5-min Rain = 0
KVP1 182353Z 19013G18KT 37/14 A2986 RMK A01 T03730142  RH  025%=      5-min Rain = 0
KVP1 182354Z 19018G24KT 37/14 A2986 RMK A01 T03720142  RH  025%=      5-min Rain = 0
KVP1 182355Z 19016KT 37/14 A2986 RMK A01 T03730144  RH  026%=      5-min Rain = 0
KVP1 182356Z 19019KT 37/14 A2986 RMK A01 T03730143  RH  026%=      5-min Rain = 0
KVP1 182357Z 18017KT 37/14 A2986 RMK A01 T03720143  RH  026%=      5-min Rain = 0
KVP1 182358Z 18015G20KT 37/14 A2986 RMK A01 T03710144  RH  026%=      5-min Rain = 0
KVP1 182359Z 18016G21KT 37/14 A2986 RMK A01 T03710142  RH  026%=      5-min Rain = 0
KVP1 190000Z 19015KT 37/14 A2986 RMK A01 T03710144  RH  026%=      5-min Rain = 0
KVP1 190001Z 18016KT 37/15 A2986 RMK A01 T03700146  RH  026%=      5-min Rain = 0
KVP1 190002Z 16014KT 37/15 A2986 RMK A01 T03710148  RH  027%=      5-min Rain = 0
KVP1 190003Z 17014KT 37/15 A2986 RMK A01 T03700149  RH  027%=      5-min Rain = 0
KVP1 190004Z 17019G25KT 37/15 A2986 RMK A01 T03690147  RH  027%=      5-min Rain = 0
KVP1 190005Z 19017KT 37/15 A2986 RMK A01 T03690146  RH  027%=      5-min Rain = 0
KVP1 190006Z 18018KT 37/15 A2986 RMK A01 T03690145  RH  026%=      5-min Rain = 0
KVP1 190007Z 19015KT 37/14 A2986 RMK A01 T03690144  RH  026%=      5-min Rain = 0
KVP1 190008Z 18014G19KT 37/15 A2986 RMK A01 T03690145  RH  026%=      5-min Rain = 0
KVP1 190009Z 18020KT 37/14 A2986 RMK A01 T03690144  RH  026%=      5-min Rain = 0
KVP1 190010Z 18017G23KT 37/14 A2986 RMK A01 T03690144  RH  026%=      5-min Rain = 0
KVP1 190011Z 19017KT 37/15 A2986 RMK A01 T03690145  RH  026%=      5-min Rain = 0
KVP1 190012Z 19018KT 37/14 A2986 RMK A01 T03690144  RH  026%=      5-min Rain = 0
KVP1 190013Z 18017KT 37/15 A2986 RMK A01 T03680145  RH  027%=      5-min Rain = 0
KVP1 190014Z 18018KT 37/14 A2986 RMK A01 T03670144  RH  026%=      5-min Rain = 0
KVP1 190015Z 18016KT 37/14 A2986 RMK A01 T03670144  RH  027%=      5-min Rain = 0
KVP1 190016Z 19018KT 37/15 A2986 RMK A01 T03670145  RH  027%=      5-min Rain = 0
KVP1 190017Z 18017KT 37/15 A2986 RMK A01 T03680146  RH  027%=      5-min Rain = 0
KVP1 190018Z 17015KT 37/15 A2986 RMK A01 T03670148  RH  027%=      5-min Rain = 0
KVP1 190019Z 17015G20KT 37/15 A2986 RMK A01 T03670149  RH  027%=      5-min Rain = 0
KVP1 190020Z 17016KT 37/15 A2986 RMK A01 T03660149  RH  028%=      5-min Rain = 0
KVP1 190021Z 17015KT 37/15 A2986 RMK A01 T03660151  RH  028%=      5-min Rain = 0
KVP1 190022Z 18014KT 37/15 A2986 RMK A01 T03650151  RH  028%=      5-min Rain = 0
KVP1 190023Z 18017KT 37/15 A2986 RMK A01 T03650149  RH  028%=      5-min Rain = 0
KVP1 190024Z 19015G20KT 37/15 A2986 RMK A01 T03650147  RH  027%=      5-min Rain = 0
KVP1 190025Z 19021KT 37/15 A2986 RMK A01 T03650145  RH  027%=      5-min Rain = 0
KVP1 190026Z 18017KT 36/15 A2986 RMK A01 T03640147  RH  027%=      5-min Rain = 0
KVP1 190027Z 18014KT 36/15 A2986 RMK A01 T03640148  RH  028%=      5-min Rain = 0
KVP1 190028Z 18018KT 37/15 A2986 RMK A01 T03650147  RH  027%=      5-min Rain = 0
KVP1 190029Z 18015KT 36/15 A2986 RMK A01 T03640146  RH  027%=      5-min Rain = 0
KVP1 190030Z 19019G25KT 36/15 A2986 RMK A01 T03640146  RH  027%=      5-min Rain = 0
KVP1 190031Z 18019KT 36/15 A2986 RMK A01 T03630146  RH  028%=      5-min Rain = 0
KVP1 190032Z 19018KT 36/15 A2986 RMK A01 T03620147  RH  028%=      5-min Rain = 0
KVP1 190033Z 19015G20KT 36/15 A2986 RMK A01 T03610149  RH  028%=      5-min Rain = 0
KVP1 190034Z 17017KT 36/15 A2986 RMK A01 T03610149  RH  028%=      5-min Rain = 0
KVP1 190035Z 17015KT 36/15 A2986 RMK A01 T03610150  RH  028%=      5-min Rain = 0
KVP1 190036Z 17015KT 36/15 A2986 RMK A01 T03600150  RH  029%=      5-min Rain = 0
KVP1 190037Z 17019KT 36/15 A2986 RMK A01 T03590151  RH  029%=      5-min Rain = 0
KVP1 190038Z 17018KT 36/15 A2986 RMK A01 T03590151  RH  029%=      5-min Rain = 0
KVP1 190039Z 16018G23KT 36/15 A2986 RMK A01 T03580152  RH  029%=      5-min Rain = 0
KVP1 190040Z 17021KT 36/15 A2986 RMK A01 T03580153  RH  030%=      5-min Rain = 0
KVP1 190041Z 16019KT 36/15 A2986 RMK A01 T03560153  RH  030%=      5-min Rain = 0
KVP1 190042Z 16016G23KT 36/15 A2986 RMK A01 T03550154  RH  030%=      5-min Rain = 0
KVP1 190043Z 17015KT 35/16 A2986 RMK A01 T03540155  RH  031%=      5-min Rain = 0
KVP1 190044Z 17018KT 35/16 A2986 RMK A01 T03540155  RH  031%=      5-min Rain = 0
KVP1 190045Z 17016KT 35/16 A2986 RMK A01 T03540156  RH  031%=      5-min Rain = 0
KVP1 190046Z 17017G23KT 35/16 A2986 RMK A01 T03530155  RH  031%=      5-min Rain = 0
KVP1 190047Z 17020KT 35/15 A2986 RMK A01 T03530154  RH  030%=      5-min Rain = 0
KVP1 190048Z 17019KT 35/15 A2986 RMK A01 T03530154  RH  031%=      5-min Rain = 0
KVP1 190049Z 17018KT 35/16 A2987 RMK A01 T03540156  RH  031%=      5-min Rain = 0
KVP1 190050Z 17020G25KT 35/16 A2987 RMK A01 T03530156  RH  031%=      5-min Rain = 0
KVP1 190051Z 17020KT 35/16 A2987 RMK A01 T03530155  RH  031%=      5-min Rain = 0
KVP1 190052Z 18017G23KT 35/16 A2987 RMK A01 T03520155  RH  031%=      5-min Rain = 0
KVP1 190053Z 18019KT 35/16 A2987 RMK A01 T03520155  RH  031%=      5-min Rain = 0
KVP1 190054Z 18022KT 35/15 A2987 RMK A01 T03520154  RH  031%=      5-min Rain = 0
KVP1 190055Z 17018G24KT 35/15 A2987 RMK A01 T03520154  RH  031%=      5-min Rain = 0
KVP1 190056Z 17017KT 35/16 A2987 RMK A01 T03520155  RH  031%=      5-min Rain = 0
KVP1 190057Z 17019KT 35/16 A2987 RMK A01 T03510155  RH  031%=      5-min Rain = 0
KVP1 190058Z 17019KT 35/15 A2987 RMK A01 T03500154  RH  031%=      5-min Rain = 0
KVP1 190059Z 18019KT 35/16 A2987 RMK A01 T03510155  RH  031%=      5-min Rain = 0
KVP1 190100Z 18018KT 35/15 A2987 RMK A01 T03500154  RH  031%=      5-min Rain = 0
KVP1 190101Z 18016KT 35/15 A2987 RMK A01 T03500154  RH  031%=      5-min Rain = 0
KVP1 190102Z 17014KT 35/16 A2987 RMK A01 T03500155  RH  031%=      5-min Rain = 0
KVP1 190103Z 17018KT 35/16 A2987 RMK A01 T03500155  RH  031%=      5-min Rain = 0
KVP1 190104Z 18018KT 35/15 A2987 RMK A01 T03490154  RH  031%=      5-min Rain = 0
KVP1 190105Z 17018KT 35/16 A2987 RMK A01 T03480155  RH  031%=      5-min Rain = 0
KVP1 190106Z 17019KT 35/16 A2987 RMK A01 T03480155  RH  032%=      5-min Rain = 0
KVP1 190107Z 17016KT 35/15 A2987 RMK A01 T03470154  RH  032%=      5-min Rain = 0
KVP1 190108Z 17018KT 35/16 A2987 RMK A01 T03470155  RH  032%=      5-min Rain = 0
KVP1 190109Z 17018G23KT 35/16 A2987 RMK A01 T03470155  RH  032%=      5-min Rain = 0
KVP1 190110Z 17019KT 35/16 A2987 RMK A01 T03460155  RH  032%=      5-min Rain = 0
KVP1 190111Z 17016G21KT 35/16 A2987 RMK A01 T03460155  RH  032%=      5-min Rain = 0
KVP1 190112Z 17014KT 35/16 A2987 RMK A01 T03460156  RH  032%=      5-min Rain = 0
KVP1 190113Z 17016KT 35/16 A2987 RMK A01 T03450156  RH  032%=      5-min Rain = 0
KVP1 190114Z 17014KT 35/16 A2987 RMK A01 T03450156  RH  032%=      5-min Rain = 0
KVP1 190115Z 17015KT 34/16 A2987 RMK A01 T03440156  RH  033%=      5-min Rain = 0
KVP1 190116Z 17016KT 34/16 A2987 RMK A01 T03430156  RH  033%=      5-min Rain = 0
KVP1 190117Z 17016KT 34/16 A2987 RMK A01 T03430156  RH  033%=      5-min Rain = 0
KVP1 190118Z 17016KT 34/16 A2987 RMK A01 T03430156  RH  033%=      5-min Rain = 0
KVP1 190119Z 17016KT 34/16 A2987 RMK A01 T03430156  RH  033%=      5-min Rain = 0
KVP1 190120Z 17018KT 34/16 A2987 RMK A01 T03430155  RH  033%=      5-min Rain = 0
KVP1 190121Z 18019KT 34/16 A2987 RMK A01 T03430155  RH  033%=      5-min Rain = 0
KVP1 190122Z 17018KT 34/16 A2987 RMK A01 T03430155  RH  033%=      5-min Rain = 0
KVP1 190123Z 17016KT 34/16 A2987 RMK A01 T03420155  RH  033%=      5-min Rain = 0
KVP1 190124Z 17014KT 34/16 A2987 RMK A01 T03410156  RH  033%=      5-min Rain = 0
KVP1 190125Z 17015G20KT 34/16 A2987 RMK A01 T03410156  RH  033%=      5-min Rain = 0
KVP1 190126Z 17017KT 34/16 A2987 RMK A01 T03400155  RH  033%=      5-min Rain = 0
KVP1 190127Z 17014KT 34/16 A2987 RMK A01 T03400155  RH  033%=      5-min Rain = 0
KVP1 190128Z 17015KT 34/16 A2987 RMK A01 T03390155  RH  033%=      5-min Rain = 0
KVP1 190129Z 17016KT 34/16 A2987 RMK A01 T03390156  RH  033%=      5-min Rain = 0
KVP1 190130Z 17014KT 34/16 A2987 RMK A01 T03390155  RH  033%=      5-min Rain = 0
KVP1 190131Z 17015KT 34/16 A2987 RMK A01 T03390156  RH  033%=      5-min Rain = 0
KVP1 190132Z 17016KT 34/16 A2987 RMK A01 T03380156  RH  034%=      5-min Rain = 0
KVP1 190133Z 17016KT 34/16 A2987 RMK A01 T03380156  RH  034%=      5-min Rain = 0
KVP1 190134Z 17016KT 34/16 A2987 RMK A01 T03380155  RH  034%=      5-min Rain = 0
KVP1 190135Z 17015G20KT 34/16 A2987 RMK A01 T03380155  RH  034%=      5-min Rain = 0
KVP1 190136Z 17018KT 34/16 A2987 RMK A01 T03380155  RH  034%=      5-min Rain = 0
KVP1 190137Z 17015KT 34/16 A2987 RMK A01 T03370155  RH  034%=      5-min Rain = 0
KVP1 190138Z 17014KT 34/16 A2987 RMK A01 T03370156  RH  034%=      5-min Rain = 0
KVP1 190139Z 17015KT 34/16 A2988 RMK A01 T03360156  RH  034%=      5-min Rain = 0
KVP1 190140Z 17014KT 34/16 A2988 RMK A01 T03350156  RH  034%=      5-min Rain = 0
KVP1 190141Z 17014G20KT 33/16 A2988 RMK A01 T03340156  RH  034%=      5-min Rain = 0
KVP1 190142Z 17014G19KT 33/16 A2988 RMK A01 T03330156  RH  035%=      5-min Rain = 0
KVP1 190143Z 17014KT 33/16 A2988 RMK A01 T03330156  RH  035%=      5-min Rain = 0
KVP1 190144Z 17015KT 33/16 A2988 RMK A01 T03320156  RH  035%=      5-min Rain = 0
KVP1 190145Z 17016KT 33/16 A2988 RMK A01 T03320156  RH  035%=      5-min Rain = 0
KVP1 190146Z 18017KT 33/16 A2988 RMK A01 T03320156  RH  035%=      5-min Rain = 0
KVP1 190147Z 17016KT 33/16 A2988 RMK A01 T03330156  RH  035%=      5-min Rain = 0
KVP1 190148Z 17015G21KT 33/16 A2988 RMK A01 T03320156  RH  035%=      5-min Rain = 0
KVP1 190149Z 17016KT 33/16 A2988 RMK A01 T03320156  RH  035%=      5-min Rain = 0
KVP1 190150Z 17013KT 33/16 A2988 RMK A01 T03310156  RH  035%=      5-min Rain = 0
KVP1 190151Z 17012KT 33/16 A2988 RMK A01 T03310157  RH  035%=      5-min Rain = 0
KVP1 190152Z 18014KT 33/16 A2988 RMK A01 T03290156  RH  035%=      5-min Rain = 0
KVP1 190153Z 17015KT 33/16 A2988 RMK A01 T03290156  RH  035%=      5-min Rain = 0
KVP1 190154Z 17015KT 33/16 A2988 RMK A01 T03280155  RH  035%=      5-min Rain = 0
KVP1 190155Z 17012KT 33/16 A2988 RMK A01 T03290156  RH  035%=      5-min Rain = 0
KVP1 190156Z 17015KT 33/16 A2988 RMK A01 T03280156  RH  036%=      5-min Rain = 0
KVP1 190157Z 17013KT 33/16 A2988 RMK A01 T03280156  RH  036%=      5-min Rain = 0
KVP1 190158Z 17012KT 33/16 A2988 RMK A01 T03270156  RH  036%=      5-min Rain = 0
KVP1 190159Z 17014KT 33/16 A2988 RMK A01 T03260156  RH  036%=      5-min Rain = 0
KVP1 190200Z 17014KT 33/16 A2988 RMK A01 T03260156  RH  036%=      5-min Rain = 0
KVP1 190201Z 17012KT 33/16 A2988 RMK A01 T03260156  RH  036%=      5-min Rain = 0
KVP1 190202Z 17013KT 33/16 A2988 RMK A01 T03250156  RH  036%=      5-min Rain = 0
KVP1 190203Z 17013KT 33/16 A2988 RMK A01 T03250156  RH  036%=      5-min Rain = 0
KVP1 190204Z 17013KT 33/16 A2988 RMK A01 T03250156  RH  036%=      5-min Rain = 0
KVP1 190205Z 17012KT 33/16 A2988 RMK A01 T03250156  RH  036%=      5-min Rain = 0
KVP1 190206Z 17012KT 32/16 A2988 RMK A01 T03240156  RH  036%=      5-min Rain = 0
KVP1 190207Z 17012KT 32/16 A2988 RMK A01 T03230156  RH  036%=      5-min Rain = 0
KVP1 190208Z 17011KT 32/16 A2988 RMK A01 T03230156  RH  037%=      5-min Rain = 0
KVP1 190209Z 17012KT 32/16 A2988 RMK A01 T03220156  RH  037%=      5-min Rain = 0
KVP1 190210Z 17012KT 32/16 A2988 RMK A01 T03220155  RH  037%=      5-min Rain = 0
KVP1 190211Z 17012KT 32/16 A2988 RMK A01 T03220155  RH  037%=      5-min Rain = 0
KVP1 190212Z 17011KT 32/16 A2988 RMK A01 T03220155  RH  037%=      5-min Rain = 0
KVP1 190213Z 17012KT 32/16 A2988 RMK A01 T03220155  RH  037%=      5-min Rain = 0
KVP1 190214Z 17012KT 32/16 A2988 RMK A01 T03210155  RH  037%=      5-min Rain = 0
KVP1 190215Z 17012KT 32/16 A2988 RMK A01 T03210155  RH  037%=      5-min Rain = 0
KVP1 190216Z 17012KT 32/16 A2988 RMK A01 T03210155  RH  037%=      5-min Rain = 0
KVP1 190217Z 17013KT 32/16 A2988 RMK A01 T03200155  RH  037%=      5-min Rain = 0
KVP1 190218Z 17011KT 32/16 A2988 RMK A01 T03210155  RH  037%=      5-min Rain = 0
KVP1 190219Z 17013KT 32/16 A2988 RMK A01 T03210155  RH  037%=      5-min Rain = 0
KVP1 190220Z 17012KT 32/15 A2988 RMK A01 T03200154  RH  037%=      5-min Rain = 0
KVP1 190221Z 17013G18KT 32/15 A2988 RMK A01 T03190154  RH  037%=      5-min Rain = 0
KVP1 190222Z 17012KT 32/15 A2988 RMK A01 T03190154  RH  037%=      5-min Rain = 0
KVP1 190223Z 17012KT 32/15 A2988 RMK A01 T03190154  RH  037%=      5-min Rain = 0
KVP1 190224Z 17014KT 32/15 A2988 RMK A01 T03180154  RH  037%=      5-min Rain = 0
KVP1 190225Z 17013KT 32/15 A2989 RMK A01 T03180154  RH  037%=      5-min Rain = 0
KVP1 190226Z 17014KT 32/15 A2989 RMK A01 T03190154  RH  037%=      5-min Rain = 0
KVP1 190227Z 17012KT 32/15 A2988 RMK A01 T03180154  RH  037%=      5-min Rain = 0
KVP1 190228Z 17011KT 32/15 A2988 RMK A01 T03180154  RH  037%=      5-min Rain = 0
KVP1 190229Z 17012KT 32/15 A2988 RMK A01 T03170154  RH  037%=      5-min Rain = 0
KVP1 190230Z 17014KT 32/15 A2989 RMK A01 T03170154  RH  037%=      5-min Rain = 0
KVP1 190231Z 17014KT 32/15 A2989 RMK A01 T03170153  RH  037%=      5-min Rain = 0
KVP1 190232Z 17014KT 32/15 A2989 RMK A01 T03170153  RH  037%=      5-min Rain = 0
KVP1 190233Z 17014KT 32/15 A2989 RMK A01 T03180154  RH  037%=      5-min Rain = 0
KVP1 190234Z 17014KT 32/15 A2989 RMK A01 T03170153  RH  037%=      5-min Rain = 0
KVP1 190235Z 17014KT 32/15 A2989 RMK A01 T03170153  RH  037%=      5-min Rain = 0
KVP1 190236Z 17013KT 32/15 A2989 RMK A01 T03180153  RH  037%=      5-min Rain = 0
KVP1 190237Z 17012KT 32/15 A2989 RMK A01 T03170153  RH  037%=      5-min Rain = 0
KVP1 190238Z 17013KT 32/15 A2989 RMK A01 T03160153  RH  037%=      5-min Rain = 0
KVP1 190239Z 17011KT 32/15 A2989 RMK A01 T03150153  RH  037%=      5-min Rain = 0
KVP1 190240Z 17013KT 32/15 A2989 RMK A01 T03160153  RH  037%=      5-min Rain = 0
KVP1 190241Z 17012KT 32/15 A2989 RMK A01 T03150152  RH  037%=      5-min Rain = 0
KVP1 190242Z 17013KT 32/15 A2989 RMK A01 T03150153  RH  038%=      5-min Rain = 0
KVP1 190243Z 17014KT 31/15 A2989 RMK A01 T03140152  RH  037%=      5-min Rain = 0
KVP1 190244Z 17014KT 32/15 A2989 RMK A01 T03150152  RH  037%=      5-min Rain = 0
KVP1 190245Z 17015KT 32/15 A2989 RMK A01 T03150151  RH  037%=      5-min Rain = 0
KVP1 190246Z 18013KT 32/15 A2989 RMK A01 T03150151  RH  037%=      5-min Rain = 0
KVP1 190247Z 17013KT 32/15 A2989 RMK A01 T03150152  RH  037%=      5-min Rain = 0
KVP1 190248Z 17014KT 31/15 A2989 RMK A01 T03140151  RH  037%=      5-min Rain = 0
KVP1 190249Z 17012KT 31/15 A2989 RMK A01 T03140152  RH  037%=      5-min Rain = 0
KVP1 190250Z 17012KT 31/15 A2989 RMK A01 T03130152  RH  038%=      5-min Rain = 0
KVP1 190251Z 17014KT 31/15 A2989 RMK A01 T03130152  RH  038%=      5-min Rain = 0
KVP1 190252Z 17013KT 31/15 A2989 RMK A01 T03120152  RH  038%=      5-min Rain = 0
KVP1 190253Z 17012KT 31/15 A2989 RMK A01 T03130152  RH  038%=      5-min Rain = 0
KVP1 190254Z 17013KT 31/15 A2989 RMK A01 T03120152  RH  038%=      5-min Rain = 0
KVP1 190255Z 17013KT 31/15 A2989 RMK A01 T03110152  RH  038%=      5-min Rain = 0
KVP1 190256Z 17012KT 31/15 A2989 RMK A01 T03120152  RH  038%=      5-min Rain = 0
KVP1 190257Z 17012KT 31/15 A2989 RMK A01 T03110152  RH  038%=      5-min Rain = 0
KVP1 190258Z 17012KT 31/15 A2989 RMK A01 T03110152  RH  038%=      5-min Rain = 0
KVP1 190259Z 17011KT 31/15 A2989 RMK A01 T03100152  RH  038%=      5-min Rain = 0
KVP1 190300Z 17012KT 31/15 A2989 RMK A01 T03090151  RH  038%=      5-min Rain = 0
KVP1 190301Z 17013KT 31/15 A2989 RMK A01 T03090151  RH  038%=      5-min Rain = 0
KVP1 190302Z 17011KT 31/15 A2989 RMK A01 T03090151  RH  039%=      5-min Rain = 0
KVP1 190303Z 17011KT 31/15 A2989 RMK A01 T03080152  RH  039%=      5-min Rain = 0
KVP1 190304Z 17011KT 31/15 A2989 RMK A01 T03080152  RH  039%=      5-min Rain = 0
KVP1 190305Z 17012KT 31/15 A2989 RMK A01 T03080152  RH  039%=      5-min Rain = 0
KVP1 190306Z 17011KT 31/15 A2989 RMK A01 T03070151  RH  039%=      5-min Rain = 0
KVP1 190307Z 17011KT 31/15 A2989 RMK A01 T03070151  RH  039%=      5-min Rain = 0
KVP1 190308Z 17011KT 31/15 A2989 RMK A01 T03070151  RH  039%=      5-min Rain = 0
KVP1 190309Z 17010KT 31/15 A2989 RMK A01 T03060151  RH  039%=      5-min Rain = 0
KVP1 190310Z 17011KT 31/15 A2989 RMK A01 T03060151  RH  039%=      5-min Rain = 0
KVP1 190311Z 17011KT 31/15 A2989 RMK A01 T03060151  RH  039%=      5-min Rain = 0
KVP1 190312Z 17012KT 31/15 A2989 RMK A01 T03060151  RH  039%=      5-min Rain = 0
KVP1 190313Z 17010KT 31/15 A299 RMK A01 T03060151  RH  039%=      5-min Rain = 0
KVP1 190314Z 17010KT 31/15 A299 RMK A01 T03050151  RH  039%=      5-min Rain = 0
KVP1 190315Z 17012KT 30/15 A299 RMK A01 T03040151  RH  039%=      5-min Rain = 0
KVP1 190316Z 17011KT 30/15 A299 RMK A01 T03040151  RH  039%=      5-min Rain = 0
KVP1 190317Z 17011KT 30/15 A299 RMK A01 T03040150  RH  039%=      5-min Rain = 0
KVP1 190318Z 17011KT 30/15 A299 RMK A01 T03040150  RH  039%=      5-min Rain = 0
KVP1 190319Z 17012KT 30/15 A299 RMK A01 T03030150  RH  039%=      5-min Rain = 0
KVP1 190320Z 17010KT 30/15 A299 RMK A01 T03030150  RH  040%=      5-min Rain = 0
KVP1 190321Z 17012KT 30/15 A299 RMK A01 T03030150  RH  039%=      5-min Rain = 0
KVP1 190322Z 17013KT 30/15 A299 RMK A01 T03040151  RH  039%=      5-min Rain = 0
KVP1 190323Z 17012KT 30/15 A299 RMK A01 T03040150  RH  039%=      5-min Rain = 0
KVP1 190324Z 17012KT 30/15 A299 RMK A01 T03040150  RH  039%=      5-min Rain = 0
KVP1 190325Z 17011KT 30/15 A299 RMK A01 T03040150  RH  039%=      5-min Rain = 0
KVP1 190326Z 17013KT 30/15 A299 RMK A01 T03040150  RH  039%=      5-min Rain = 0
KVP1 190327Z 17012KT 30/15 A299 RMK A01 T03040150  RH  039%=      5-min Rain = 0
KVP1 190328Z 17013KT 30/15 A299 RMK A01 T03030150  RH  039%=      5-min Rain = 0
KVP1 190329Z 17013KT 30/15 A299 RMK A01 T03030150  RH  039%=      5-min Rain = 0
KVP1 190330Z 18012KT 30/15 A299 RMK A01 T03030150  RH  039%=      5-min Rain = 0
KVP1 190331Z 17012KT 30/15 A299 RMK A01 T03030150  RH  040%=      5-min Rain = 0
KVP1 190332Z 18012KT 30/15 A299 RMK A01 T03020150  RH  040%=      5-min Rain = 0
KVP1 190333Z 17014KT 30/15 A299 RMK A01 T03020150  RH  040%=      5-min Rain = 0
KVP1 190334Z 18013KT 30/15 A299 RMK A01 T03020150  RH  040%=      5-min Rain = 0
KVP1 190335Z 17011KT 30/15 A299 RMK A01 T03020149  RH  039%=      5-min Rain = 0
KVP1 190336Z 18012KT 30/15 A299 RMK A01 T03020150  RH  040%=      5-min Rain = 0
KVP1 190337Z 18012KT 30/15 A2991 RMK A01 T03020150  RH  040%=      5-min Rain = 0
KVP1 190338Z 18012KT 30/15 A2991 RMK A01 T03020150  RH  040%=      5-min Rain = 0
KVP1 190339Z 18012KT 30/15 A2991 RMK A01 T03010150  RH  040%=      5-min Rain = 0
KVP1 190340Z 18011KT 30/15 A2991 RMK A01 T03010150  RH  040%=      5-min Rain = 0
KVP1 190341Z 18014KT 30/15 A2991 RMK A01 T03000150  RH  040%=      5-min Rain = 0
KVP1 190342Z 18012KT 30/15 A2991 RMK A01 T03000149  RH  040%=      5-min Rain = 0
KVP1 190343Z 18011KT 30/15 A2991 RMK A01 T03010149  RH  040%=      5-min Rain = 0
KVP1 190344Z 17012KT 30/15 A2991 RMK A01 T03000149  RH  040%=      5-min Rain = 0
KVP1 190345Z 18012KT 30/15 A2991 RMK A01 T03000149  RH  040%=      5-min Rain = 0
KVP1 190346Z 18012KT 30/15 A2991 RMK A01 T03000150  RH  040%=      5-min Rain = 0
KVP1 190347Z 18012KT 30/15 A2991 RMK A01 T03000149  RH  040%=      5-min Rain = 0
KVP1 190348Z 17012KT 30/15 A2991 RMK A01 T03000150  RH  040%=      5-min Rain = 0
KVP1 190349Z 18013KT 30/15 A2991 RMK A01 T03000149  RH  040%=      5-min Rain = 0
KVP1 190350Z 17012KT 30/15 A2991 RMK A01 T03000149  RH  040%=      5-min Rain = 0
KVP1 190351Z 18012KT 30/15 A2991 RMK A01 T02990149  RH  040%=      5-min Rain = 0
KVP1 190352Z 18013KT 30/15 A2991 RMK A01 T02990149  RH  040%=      5-min Rain = 0
KVP1 190353Z 18012KT 30/15 A2991 RMK A01 T02990149  RH  040%=      5-min Rain = 0
KVP1 190354Z 18012KT 30/15 A2991 RMK A01 T02980149  RH  040%=      5-min Rain = 0
KVP1 190355Z 18012KT 30/15 A2991 RMK A01 T02980149  RH  040%=      5-min Rain = 0
KVP1 190356Z 18013KT 30/15 A2991 RMK A01 T02980149  RH  040%=      5-min Rain = 0
KVP1 190357Z 18012G17KT 30/15 A2991 RMK A01 T02980149  RH  040%=      5-min Rain = 0
KVP1 190358Z 18012KT 30/15 A2991 RMK A01 T02980149  RH  040%=      5-min Rain = 0
KVP1 190359Z 17012KT 30/15 A2991 RMK A01 T02970149  RH  040%=      5-min Rain = 0
KVP1 190400Z 18012KT 30/15 A2991 RMK A01 T02970149  RH  041%=      5-min Rain = 0
KVP1 190401Z 18012KT 30/15 A2991 RMK A01 T02960149  RH  041%=      5-min Rain = 0
KVP1 190402Z 18013KT 30/15 A2991 RMK A01 T02960149  RH  041%=      5-min Rain = 0
KVP1 190403Z 18012KT 30/15 A2991 RMK A01 T02970149  RH  041%=      5-min Rain = 0
KVP1 190404Z 18011KT 30/15 A2991 RMK A01 T02960148  RH  041%=      5-min Rain = 0
KVP1 190405Z 17012KT 30/15 A2991 RMK A01 T02960149  RH  041%=      5-min Rain = 0
KVP1 190406Z 18012KT 30/15 A2991 RMK A01 T02960149  RH  041%=      5-min Rain = 0
KVP1 190407Z 18011KT 30/15 A2991 RMK A01 T02950148  RH  041%=      5-min Rain = 0
KVP1 190408Z 17013KT 30/15 A2991 RMK A01 T02950149  RH  041%=      5-min Rain = 0
KVP1 190409Z 17014KT 29/15 A2991 RMK A01 T02940149  RH  041%=      5-min Rain = 0
KVP1 190410Z 17013KT 30/15 A2991 RMK A01 T02950149  RH  041%=      5-min Rain = 0
KVP1 190411Z 18013KT 29/15 A2991 RMK A01 T02940148  RH  041%=      5-min Rain = 0
KVP1 190412Z 18012KT 30/15 A2991 RMK A01 T02950149  RH  041%=      5-min Rain = 0
KVP1 190413Z 17013KT 30/15 A2991 RMK A01 T02950149  RH  041%=      5-min Rain = 0
KVP1 190414Z 17012KT 29/15 A2991 RMK A01 T02940149  RH  041%=      5-min Rain = 0
KVP1 190415Z 17011KT 29/15 A2992 RMK A01 T02940149  RH  041%=      5-min Rain = 0
KVP1 190416Z 17012KT 29/15 A2992 RMK A01 T02930149  RH  042%=      5-min Rain = 0
KVP1 190417Z 17012KT 29/15 A2992 RMK A01 T02920149  RH  042%=      5-min Rain = 0
KVP1 190418Z 17011KT 29/15 A2992 RMK A01 T02910149  RH  042%=      5-min Rain = 0
KVP1 190419Z 17011KT 29/15 A2992 RMK A01 T02910149  RH  042%=      5-min Rain = 0
KVP1 190420Z 17011KT 29/15 A2992 RMK A01 T02900149  RH  042%=      5-min Rain = 0
KVP1 190421Z 17011KT 29/15 A2992 RMK A01 T02900148  RH  042%=      5-min Rain = 0
KVP1 190422Z 17010KT 29/15 A2992 RMK A01 T02890148  RH  042%=      5-min Rain = 0
KVP1 190423Z 18011KT 29/15 A2992 RMK A01 T02890148  RH  042%=      5-min Rain = 0
KVP1 190424Z 17010KT 29/15 A2992 RMK A01 T02880148  RH  042%=      5-min Rain = 0
KVP1 190425Z 17013KT 29/15 A2992 RMK A01 T02870148  RH  043%=      5-min Rain = 0
KVP1 190426Z 17014KT 29/15 A2992 RMK A01 T02880149  RH  043%=      5-min Rain = 0
KVP1 190427Z 17014KT 29/15 A2992 RMK A01 T02890150  RH  043%=      5-min Rain = 0
KVP1 190428Z 17015KT 29/15 A2992 RMK A01 T02910150  RH  042%=      5-min Rain = 0
KVP1 190429Z 17013KT 29/15 A2992 RMK A01 T02910151  RH  042%=      5-min Rain = 0
KVP1 190430Z 17014G19KT 29/15 A2992 RMK A01 T02920152  RH  042%=      5-min Rain = 0
KVP1 190431Z 17014KT 29/15 A2992 RMK A01 T02920152  RH  043%=      5-min Rain = 0
KVP1 190432Z 17015KT 29/15 A2992 RMK A01 T02920153  RH  043%=      5-min Rain = 0
KVP1 190433Z 17014KT 29/15 A2992 RMK A01 T02920153  RH  043%=      5-min Rain = 0
KVP1 190434Z 17015KT 29/15 A2992 RMK A01 T02920154  RH  043%=      5-min Rain = 0
KVP1 190435Z 17013KT 29/16 A2992 RMK A01 T02910155  RH  043%=      5-min Rain = 0
KVP1 190436Z 17012G17KT 29/16 A2992 RMK A01 T02910155  RH  044%=      5-min Rain = 0
KVP1 190437Z 17014KT 29/16 A2992 RMK A01 T02900155  RH  044%=      5-min Rain = 0
KVP1 190438Z 17013KT 29/16 A2992 RMK A01 T02900156  RH  044%=      5-min Rain = 0
KVP1 190439Z 17014KT 29/16 A2992 RMK A01 T02890156  RH  044%=      5-min Rain = 0
KVP1 190440Z 17014KT 29/16 A2992 RMK A01 T02900156  RH  044%=      5-min Rain = 0
KVP1 190441Z 17015G21KT 29/16 A2992 RMK A01 T02900157  RH  045%=      5-min Rain = 0
KVP1 190442Z 18011KT 29/16 A2992 RMK A01 T02900157  RH  045%=      5-min Rain = 0
KVP1 190443Z 17014KT 29/16 A2992 RMK A01 T02890158  RH  045%=      5-min Rain = 0
KVP1 190444Z 17015KT 29/16 A2992 RMK A01 T02890158  RH  045%=      5-min Rain = 0
KVP1 190445Z 17014KT 29/16 A2992 RMK A01 T02880158  RH  045%=      5-min Rain = 0
KVP1 190446Z 17015KT 29/16 A2992 RMK A01 T02890159  RH  045%=      5-min Rain = 0
KVP1 190447Z 17016KT 29/16 A2992 RMK A01 T02890159  RH  045%=      5-min Rain = 0
KVP1 190448Z 17013KT 29/16 A2992 RMK A01 T02890160  RH  045%=      5-min Rain = 0
KVP1 190449Z 17014G19KT 29/16 A2992 RMK A01 T02890160  RH  046%=      5-min Rain = 0
KVP1 190450Z 17016KT 29/16 A2992 RMK A01 T02880161  RH  046%=      5-min Rain = 0
KVP1 190451Z 18015KT 29/16 A2992 RMK A01 T02880161  RH  046%=      5-min Rain = 0
KVP1 190452Z 18015KT 29/16 A2992 RMK A01 T02890161  RH  046%=      5-min Rain = 0
KVP1 190453Z 17012KT 29/16 A2992 RMK A01 T02890162  RH  046%=      5-min Rain = 0
KVP1 190454Z 18015KT 29/16 A2992 RMK A01 T02880162  RH  047%=      5-min Rain = 0
KVP1 190455Z 17013KT 29/16 A2992 RMK A01 T02880163  RH  047%=      5-min Rain = 0
KVP1 190456Z 18015KT 29/16 A2992 RMK A01 T02880163  RH  047%=      5-min Rain = 0
KVP1 190457Z 17015KT 29/16 A2992 RMK A01 T02880164  RH  047%=      5-min Rain = 0
KVP1 190458Z 18015KT 29/16 A2992 RMK A01 T02870163  RH  047%=      5-min Rain = 0
KVP1 190459Z 18017G22KT 29/16 A2992 RMK A01 T02870164  RH  047%=      5-min Rain = 0

Page generated in 0.1299 seconds.